<?xml version="1.0" encoding="UTF-8" standalone="no" ?>
<gpx xmlns="http://www.topografix.com/GPX/1/1" xmlns:xsi="http://www.w3.org/2001/XMLSchema-instance" xsi:schemaLocation="http://www.topografix.com/GPX/1/1 http://www.topografix.com/GPX/1/1/gpx.xsd" version="1.1" creator="VisuGPX - https://www.visugpx.com">
  <metadata>
    <name>col de blaux curban</name>
    <desc><![CDATA[col de blaux curban]]></desc>
  </metadata>
  <trk>
    <name><![CDATA[col de blaux curban_2]]></name>
    <trkseg>
      <trkpt lat="44.42019" lon="6.08571">
        <ele>1392.7</ele>
        <time>2020-09-05T09:43:06.000Z</time>
      </trkpt>
      <trkpt lat="44.42034" lon="6.08579">
        <ele>1389.2</ele>
        <time>2020-09-05T09:43:08.000Z</time>
      </trkpt>
      <trkpt lat="44.4204" lon="6.08576">
        <ele>1388</ele>
        <time>2020-09-05T09:43:10.000Z</time>
      </trkpt>
      <trkpt lat="44.42037" lon="6.0857">
        <ele>1388.2</ele>
        <time>2020-09-05T09:43:11.000Z</time>
      </trkpt>
      <trkpt lat="44.42051" lon="6.08564">
        <ele>1386.2</ele>
        <time>2020-09-05T09:43:14.000Z</time>
      </trkpt>
      <trkpt lat="44.4206" lon="6.08559">
        <ele>1385.2</ele>
        <time>2020-09-05T09:43:15.775Z</time>
      </trkpt>
      <trkpt lat="44.42065" lon="6.0855">
        <ele>1383.8</ele>
        <time>2020-09-05T09:43:19.914Z</time>
      </trkpt>
      <trkpt lat="44.42071" lon="6.08548">
        <ele>1381.2</ele>
        <time>2020-09-05T09:43:21.499Z</time>
      </trkpt>
      <trkpt lat="44.42096" lon="6.08541">
        <ele>1379.3</ele>
        <time>2020-09-05T09:43:23.000Z</time>
      </trkpt>
      <trkpt lat="44.42112" lon="6.0853">
        <ele>1380.2</ele>
        <time>2020-09-05T09:43:25.000Z</time>
      </trkpt>
      <trkpt lat="44.4212" lon="6.08524">
        <ele>1379.6</ele>
        <time>2020-09-05T09:43:26.000Z</time>
      </trkpt>
      <trkpt lat="44.42134" lon="6.08509">
        <ele>1377.1</ele>
        <time>2020-09-05T09:43:28.000Z</time>
      </trkpt>
      <trkpt lat="44.42142" lon="6.08487">
        <ele>1375.5</ele>
        <time>2020-09-05T09:43:30.000Z</time>
      </trkpt>
      <trkpt lat="44.42146" lon="6.08476">
        <ele>1375.5</ele>
        <time>2020-09-05T09:43:31.000Z</time>
      </trkpt>
      <trkpt lat="44.42147" lon="6.0846">
        <ele>1375.1</ele>
        <time>2020-09-05T09:43:33.000Z</time>
      </trkpt>
      <trkpt lat="44.42144" lon="6.08446">
        <ele>1374.1</ele>
        <time>2020-09-05T09:43:35.000Z</time>
      </trkpt>
      <trkpt lat="44.42144" lon="6.08438">
        <ele>1374.4</ele>
        <time>2020-09-05T09:43:36.000Z</time>
      </trkpt>
      <trkpt lat="44.4215" lon="6.08428">
        <ele>1372.8</ele>
        <time>2020-09-05T09:43:39.000Z</time>
      </trkpt>
      <trkpt lat="44.42154" lon="6.08423">
        <ele>1372.3</ele>
        <time>2020-09-05T09:43:41.000Z</time>
      </trkpt>
      <trkpt lat="44.42153" lon="6.08413">
        <ele>1372.5</ele>
        <time>2020-09-05T09:43:43.000Z</time>
      </trkpt>
      <trkpt lat="44.42146" lon="6.084">
        <ele>1372.6</ele>
        <time>2020-09-05T09:43:45.000Z</time>
      </trkpt>
      <trkpt lat="44.42141" lon="6.08389">
        <ele>1371.7</ele>
        <time>2020-09-05T09:43:46.000Z</time>
      </trkpt>
      <trkpt lat="44.42133" lon="6.08368">
        <ele>1371.1</ele>
        <time>2020-09-05T09:43:48.000Z</time>
      </trkpt>
      <trkpt lat="44.42129" lon="6.08361">
        <ele>1370.9</ele>
        <time>2020-09-05T09:43:49.000Z</time>
      </trkpt>
      <trkpt lat="44.42127" lon="6.08355">
        <ele>1371.7</ele>
        <time>2020-09-05T09:43:50.000Z</time>
      </trkpt>
      <trkpt lat="44.42122" lon="6.08344">
        <ele>1372.1</ele>
        <time>2020-09-05T09:43:52.000Z</time>
      </trkpt>
      <trkpt lat="44.42118" lon="6.08337">
        <ele>1372.6</ele>
        <time>2020-09-05T09:43:53.000Z</time>
      </trkpt>
      <trkpt lat="44.4211" lon="6.08322">
        <ele>1371.1</ele>
        <time>2020-09-05T09:43:55.000Z</time>
      </trkpt>
      <trkpt lat="44.42107" lon="6.08315">
        <ele>1370.8</ele>
        <time>2020-09-05T09:43:56.000Z</time>
      </trkpt>
      <trkpt lat="44.42104" lon="6.08308">
        <ele>1370.3</ele>
        <time>2020-09-05T09:43:57.000Z</time>
      </trkpt>
      <trkpt lat="44.42101" lon="6.08303">
        <ele>1370.7</ele>
        <time>2020-09-05T09:43:58.000Z</time>
      </trkpt>
      <trkpt lat="44.42099" lon="6.08297">
        <ele>1371</ele>
        <time>2020-09-05T09:43:59.000Z</time>
      </trkpt>
      <trkpt lat="44.42096" lon="6.08291">
        <ele>1366.8</ele>
        <time>2020-09-05T09:44:06.000Z</time>
      </trkpt>
      <trkpt lat="44.42093" lon="6.08285">
        <ele>1365.6</ele>
        <time>2020-09-05T09:44:09.000Z</time>
      </trkpt>
      <trkpt lat="44.42092" lon="6.08279">
        <ele>1366.7</ele>
        <time>2020-09-05T09:44:13.000Z</time>
      </trkpt>
      <trkpt lat="44.42094" lon="6.08272">
        <ele>1365.6</ele>
        <time>2020-09-05T09:44:16.000Z</time>
      </trkpt>
      <trkpt lat="44.42085" lon="6.08269">
        <ele>1367.5</ele>
        <time>2020-09-05T09:44:20.000Z</time>
      </trkpt>
      <trkpt lat="44.42073" lon="6.0827">
        <ele>1368.3</ele>
        <time>2020-09-05T09:44:23.000Z</time>
      </trkpt>
      <trkpt lat="44.42067" lon="6.08269">
        <ele>1369.2</ele>
        <time>2020-09-05T09:44:24.000Z</time>
      </trkpt>
      <trkpt lat="44.42061" lon="6.08264">
        <ele>1370.2</ele>
        <time>2020-09-05T09:44:25.000Z</time>
      </trkpt>
      <trkpt lat="44.42056" lon="6.08261">
        <ele>1370.3</ele>
        <time>2020-09-05T09:44:26.000Z</time>
      </trkpt>
      <trkpt lat="44.42051" lon="6.08257">
        <ele>1370.1</ele>
        <time>2020-09-05T09:44:27.000Z</time>
      </trkpt>
      <trkpt lat="44.42043" lon="6.08244">
        <ele>1371.1</ele>
        <time>2020-09-05T09:44:29.000Z</time>
      </trkpt>
      <trkpt lat="44.42044" lon="6.08233">
        <ele>1371.8</ele>
        <time>2020-09-05T09:44:30.000Z</time>
      </trkpt>
      <trkpt lat="44.4205" lon="6.08217">
        <ele>1372.9</ele>
        <time>2020-09-05T09:44:32.000Z</time>
      </trkpt>
      <trkpt lat="44.42051" lon="6.08206">
        <ele>1374.4</ele>
        <time>2020-09-05T09:44:34.000Z</time>
      </trkpt>
      <trkpt lat="44.4205" lon="6.08198">
        <ele>1375.4</ele>
        <time>2020-09-05T09:44:35.000Z</time>
      </trkpt>
      <trkpt lat="44.42045" lon="6.08182">
        <ele>1377.4</ele>
        <time>2020-09-05T09:44:37.000Z</time>
      </trkpt>
      <trkpt lat="44.42045" lon="6.0817">
        <ele>1379</ele>
        <time>2020-09-05T09:44:40.000Z</time>
      </trkpt>
      <trkpt lat="44.42046" lon="6.08162">
        <ele>1379.8</ele>
        <time>2020-09-05T09:44:42.000Z</time>
      </trkpt>
      <trkpt lat="44.42044" lon="6.08152">
        <ele>1383.4</ele>
        <time>2020-09-05T09:44:45.000Z</time>
      </trkpt>
      <trkpt lat="44.42042" lon="6.08144">
        <ele>1383.8</ele>
        <time>2020-09-05T09:44:47.000Z</time>
      </trkpt>
      <trkpt lat="44.42045" lon="6.08137">
        <ele>1384.6</ele>
        <time>2020-09-05T09:44:50.000Z</time>
      </trkpt>
      <trkpt lat="44.42048" lon="6.08128">
        <ele>1384.4</ele>
        <time>2020-09-05T09:44:52.000Z</time>
      </trkpt>
      <trkpt lat="44.42049" lon="6.08118">
        <ele>1385.4</ele>
        <time>2020-09-05T09:44:54.000Z</time>
      </trkpt>
      <trkpt lat="44.4205" lon="6.08109">
        <ele>1387.1</ele>
        <time>2020-09-05T09:44:56.000Z</time>
      </trkpt>
      <trkpt lat="44.42052" lon="6.08101">
        <ele>1387</ele>
        <time>2020-09-05T09:44:57.000Z</time>
      </trkpt>
      <trkpt lat="44.42056" lon="6.08084">
        <ele>1387.1</ele>
        <time>2020-09-05T09:44:59.000Z</time>
      </trkpt>
      <trkpt lat="44.4206" lon="6.08075">
        <ele>1389.8</ele>
        <time>2020-09-05T09:45:01.000Z</time>
      </trkpt>
      <trkpt lat="44.4206" lon="6.08065">
        <ele>1390.1</ele>
        <time>2020-09-05T09:45:03.000Z</time>
      </trkpt>
      <trkpt lat="44.42061" lon="6.08055">
        <ele>1388.9</ele>
        <time>2020-09-05T09:45:05.000Z</time>
      </trkpt>
      <trkpt lat="44.42062" lon="6.08042">
        <ele>1389.3</ele>
        <time>2020-09-05T09:45:09.000Z</time>
      </trkpt>
      <trkpt lat="44.42062" lon="6.08035">
        <ele>1390.4</ele>
        <time>2020-09-05T09:45:11.000Z</time>
      </trkpt>
      <trkpt lat="44.42061" lon="6.08028">
        <ele>1393.3</ele>
        <time>2020-09-05T09:45:13.000Z</time>
      </trkpt>
      <trkpt lat="44.42059" lon="6.08021">
        <ele>1400.7</ele>
        <time>2020-09-05T09:45:31.000Z</time>
      </trkpt>
      <trkpt lat="44.42058" lon="6.08012">
        <ele>1401.5</ele>
        <time>2020-09-05T09:45:34.000Z</time>
      </trkpt>
      <trkpt lat="44.42052" lon="6.07999">
        <ele>1400.8</ele>
        <time>2020-09-05T09:45:36.000Z</time>
      </trkpt>
      <trkpt lat="44.42051" lon="6.0799">
        <ele>1400.5</ele>
        <time>2020-09-05T09:45:37.000Z</time>
      </trkpt>
      <trkpt lat="44.42047" lon="6.07982">
        <ele>1401.3</ele>
        <time>2020-09-05T09:45:39.000Z</time>
      </trkpt>
      <trkpt lat="44.42043" lon="6.07978">
        <ele>1403.4</ele>
        <time>2020-09-05T09:45:41.236Z</time>
      </trkpt>
      <trkpt lat="44.42045" lon="6.07968">
        <ele>1405</ele>
        <time>2020-09-05T09:45:45.000Z</time>
      </trkpt>
      <trkpt lat="44.42044" lon="6.07961">
        <ele>1406.3</ele>
        <time>2020-09-05T09:45:50.000Z</time>
      </trkpt>
      <trkpt lat="44.42034" lon="6.07949">
        <ele>1408.3</ele>
        <time>2020-09-05T09:45:54.000Z</time>
      </trkpt>
      <trkpt lat="44.42018" lon="6.07941">
        <ele>1410.8</ele>
        <time>2020-09-05T09:45:56.000Z</time>
      </trkpt>
      <trkpt lat="44.42006" lon="6.07933">
        <ele>1412.5</ele>
        <time>2020-09-05T09:45:58.000Z</time>
      </trkpt>
      <trkpt lat="44.42002" lon="6.0793">
        <ele>1414.3</ele>
        <time>2020-09-05T09:45:59.000Z</time>
      </trkpt>
      <trkpt lat="44.41998" lon="6.07924">
        <ele>1417.2</ele>
        <time>2020-09-05T09:46:07.550Z</time>
      </trkpt>
      <trkpt lat="44.41989" lon="6.07911">
        <ele>1415.5</ele>
        <time>2020-09-05T09:46:09.000Z</time>
      </trkpt>
      <trkpt lat="44.41982" lon="6.07902">
        <ele>1414.9</ele>
        <time>2020-09-05T09:46:10.000Z</time>
      </trkpt>
      <trkpt lat="44.41975" lon="6.07895">
        <ele>1415.7</ele>
        <time>2020-09-05T09:46:11.000Z</time>
      </trkpt>
      <trkpt lat="44.4196" lon="6.07883">
        <ele>1421.8</ele>
        <time>2020-09-05T09:46:13.000Z</time>
      </trkpt>
      <trkpt lat="44.41952" lon="6.07872">
        <ele>1421.6</ele>
        <time>2020-09-05T09:46:15.000Z</time>
      </trkpt>
      <trkpt lat="44.41957" lon="6.07868">
        <ele>1423.1</ele>
        <time>2020-09-05T09:46:18.545Z</time>
      </trkpt>
      <trkpt lat="44.41951" lon="6.07861">
        <ele>1424.3</ele>
        <time>2020-09-05T09:46:22.000Z</time>
      </trkpt>
      <trkpt lat="44.41948" lon="6.07857">
        <ele>1425.8</ele>
        <time>2020-09-05T09:46:30.000Z</time>
      </trkpt>
      <trkpt lat="44.41946" lon="6.07851">
        <ele>1426</ele>
        <time>2020-09-05T09:46:35.000Z</time>
      </trkpt>
      <trkpt lat="44.41933" lon="6.0783">
        <ele>1425</ele>
        <time>2020-09-05T09:46:37.000Z</time>
      </trkpt>
      <trkpt lat="44.41927" lon="6.07823">
        <ele>1425.7</ele>
        <time>2020-09-05T09:46:38.000Z</time>
      </trkpt>
      <trkpt lat="44.41923" lon="6.07817">
        <ele>1424.6</ele>
        <time>2020-09-05T09:46:39.000Z</time>
      </trkpt>
      <trkpt lat="44.41912" lon="6.0781">
        <ele>1424.3</ele>
        <time>2020-09-05T09:46:41.000Z</time>
      </trkpt>
      <trkpt lat="44.41907" lon="6.07807">
        <ele>1424.8</ele>
        <time>2020-09-05T09:46:42.000Z</time>
      </trkpt>
      <trkpt lat="44.41903" lon="6.07803">
        <ele>1425.3</ele>
        <time>2020-09-05T09:46:43.000Z</time>
      </trkpt>
      <trkpt lat="44.41896" lon="6.07792">
        <ele>1429.5</ele>
        <time>2020-09-05T09:46:46.000Z</time>
      </trkpt>
      <trkpt lat="44.41893" lon="6.07787">
        <ele>1431.7</ele>
        <time>2020-09-05T09:46:47.000Z</time>
      </trkpt>
      <trkpt lat="44.41885" lon="6.07776">
        <ele>1429.6</ele>
        <time>2020-09-05T09:46:49.000Z</time>
      </trkpt>
      <trkpt lat="44.41877" lon="6.07763">
        <ele>1431.1</ele>
        <time>2020-09-05T09:46:51.000Z</time>
      </trkpt>
      <trkpt lat="44.41873" lon="6.07757">
        <ele>1431.7</ele>
        <time>2020-09-05T09:46:52.000Z</time>
      </trkpt>
      <trkpt lat="44.41866" lon="6.07747">
        <ele>1430.1</ele>
        <time>2020-09-05T09:46:54.000Z</time>
      </trkpt>
      <trkpt lat="44.41859" lon="6.07745">
        <ele>1429.5</ele>
        <time>2020-09-05T09:46:57.000Z</time>
      </trkpt>
      <trkpt lat="44.41852" lon="6.07736">
        <ele>1431</ele>
        <time>2020-09-05T09:46:59.000Z</time>
      </trkpt>
      <trkpt lat="44.41848" lon="6.07728">
        <ele>1431.9</ele>
        <time>2020-09-05T09:47:00.000Z</time>
      </trkpt>
      <trkpt lat="44.41838" lon="6.07714">
        <ele>1434.5</ele>
        <time>2020-09-05T09:47:02.000Z</time>
      </trkpt>
      <trkpt lat="44.41834" lon="6.07709">
        <ele>1436.8</ele>
        <time>2020-09-05T09:47:03.000Z</time>
      </trkpt>
      <trkpt lat="44.4183" lon="6.07705">
        <ele>1438.1</ele>
        <time>2020-09-05T09:47:04.000Z</time>
      </trkpt>
      <trkpt lat="44.41822" lon="6.07691">
        <ele>1443.3</ele>
        <time>2020-09-05T09:47:07.000Z</time>
      </trkpt>
      <trkpt lat="44.4181" lon="6.07679">
        <ele>1445.8</ele>
        <time>2020-09-05T09:47:09.000Z</time>
      </trkpt>
      <trkpt lat="44.41798" lon="6.07673">
        <ele>1447.4</ele>
        <time>2020-09-05T09:47:11.000Z</time>
      </trkpt>
      <trkpt lat="44.41789" lon="6.07669">
        <ele>1447.4</ele>
        <time>2020-09-05T09:47:14.000Z</time>
      </trkpt>
      <trkpt lat="44.41794" lon="6.07669">
        <ele>1447.6</ele>
        <time>2020-09-05T09:47:17.000Z</time>
      </trkpt>
      <trkpt lat="44.41785" lon="6.07666">
        <ele>1453.3</ele>
        <time>2020-09-05T09:47:23.946Z</time>
      </trkpt>
      <trkpt lat="44.41778" lon="6.07663">
        <ele>1454.9</ele>
        <time>2020-09-05T09:47:26.129Z</time>
      </trkpt>
      <trkpt lat="44.41772" lon="6.07654">
        <ele>1451.9</ele>
        <time>2020-09-05T09:47:28.580Z</time>
      </trkpt>
      <trkpt lat="44.41768" lon="6.0765">
        <ele>1450.1</ele>
        <time>2020-09-05T09:47:29.920Z</time>
      </trkpt>
      <trkpt lat="44.41762" lon="6.07638">
        <ele>1445.7</ele>
        <time>2020-09-05T09:47:32.000Z</time>
      </trkpt>
      <trkpt lat="44.41758" lon="6.07627">
        <ele>1443.6</ele>
        <time>2020-09-05T09:47:33.362Z</time>
      </trkpt>
      <trkpt lat="44.41753" lon="6.07618">
        <ele>1442.7</ele>
        <time>2020-09-05T09:47:34.724Z</time>
      </trkpt>
      <trkpt lat="44.41743" lon="6.07605">
        <ele>1440</ele>
        <time>2020-09-05T09:47:36.000Z</time>
      </trkpt>
      <trkpt lat="44.41736" lon="6.076">
        <ele>1437.5</ele>
        <time>2020-09-05T09:47:37.000Z</time>
      </trkpt>
      <trkpt lat="44.41724" lon="6.07588">
        <ele>1435.1</ele>
        <time>2020-09-05T09:47:39.000Z</time>
      </trkpt>
      <trkpt lat="44.41721" lon="6.07581">
        <ele>1435.2</ele>
        <time>2020-09-05T09:47:40.000Z</time>
      </trkpt>
      <trkpt lat="44.41719" lon="6.07574">
        <ele>1435.2</ele>
        <time>2020-09-05T09:47:41.000Z</time>
      </trkpt>
      <trkpt lat="44.41713" lon="6.07562">
        <ele>1429.4</ele>
        <time>2020-09-05T09:47:43.000Z</time>
      </trkpt>
      <trkpt lat="44.41709" lon="6.07557">
        <ele>1427.5</ele>
        <time>2020-09-05T09:47:44.000Z</time>
      </trkpt>
      <trkpt lat="44.41699" lon="6.07547">
        <ele>1425.6</ele>
        <time>2020-09-05T09:47:46.928Z</time>
      </trkpt>
      <trkpt lat="44.41696" lon="6.07537">
        <ele>1422.8</ele>
        <time>2020-09-05T09:47:48.000Z</time>
      </trkpt>
      <trkpt lat="44.41692" lon="6.07528">
        <ele>1422.5</ele>
        <time>2020-09-05T09:47:49.000Z</time>
      </trkpt>
      <trkpt lat="44.41685" lon="6.07512">
        <ele>1421.2</ele>
        <time>2020-09-05T09:47:51.000Z</time>
      </trkpt>
      <trkpt lat="44.41676" lon="6.07499">
        <ele>1420.4</ele>
        <time>2020-09-05T09:47:53.000Z</time>
      </trkpt>
      <trkpt lat="44.41672" lon="6.07493">
        <ele>1419.9</ele>
        <time>2020-09-05T09:47:54.000Z</time>
      </trkpt>
      <trkpt lat="44.41668" lon="6.07488">
        <ele>1418.2</ele>
        <time>2020-09-05T09:47:55.000Z</time>
      </trkpt>
      <trkpt lat="44.41666" lon="6.07474">
        <ele>1415.6</ele>
        <time>2020-09-05T09:47:58.000Z</time>
      </trkpt>
      <trkpt lat="44.41666" lon="6.07462">
        <ele>1414.9</ele>
        <time>2020-09-05T09:48:00.120Z</time>
      </trkpt>
      <trkpt lat="44.41668" lon="6.07452">
        <ele>1414.7</ele>
        <time>2020-09-05T09:48:02.762Z</time>
      </trkpt>
      <trkpt lat="44.41672" lon="6.07443">
        <ele>1412.7</ele>
        <time>2020-09-05T09:48:06.000Z</time>
      </trkpt>
      <trkpt lat="44.41676" lon="6.07439">
        <ele>1408.7</ele>
        <time>2020-09-05T09:48:18.000Z</time>
      </trkpt>
      <trkpt lat="44.41678" lon="6.07431">
        <ele>1405.7</ele>
        <time>2020-09-05T09:48:23.000Z</time>
      </trkpt>
      <trkpt lat="44.41681" lon="6.07425">
        <ele>1404.3</ele>
        <time>2020-09-05T09:48:26.000Z</time>
      </trkpt>
      <trkpt lat="44.41681" lon="6.07418">
        <ele>1402.4</ele>
        <time>2020-09-05T09:48:29.256Z</time>
      </trkpt>
      <trkpt lat="44.41686" lon="6.074">
        <ele>1398.8</ele>
        <time>2020-09-05T09:48:32.000Z</time>
      </trkpt>
      <trkpt lat="44.41689" lon="6.07394">
        <ele>1399</ele>
        <time>2020-09-05T09:48:33.000Z</time>
      </trkpt>
      <trkpt lat="44.41696" lon="6.07384">
        <ele>1398.9</ele>
        <time>2020-09-05T09:48:35.000Z</time>
      </trkpt>
      <trkpt lat="44.417" lon="6.07375">
        <ele>1398.4</ele>
        <time>2020-09-05T09:48:38.000Z</time>
      </trkpt>
      <trkpt lat="44.41701" lon="6.07365">
        <ele>1395.3</ele>
        <time>2020-09-05T09:48:46.000Z</time>
      </trkpt>
      <trkpt lat="44.417" lon="6.07352">
        <ele>1397.1</ele>
        <time>2020-09-05T09:48:49.000Z</time>
      </trkpt>
      <trkpt lat="44.41698" lon="6.07342">
        <ele>1397.9</ele>
        <time>2020-09-05T09:48:51.000Z</time>
      </trkpt>
      <trkpt lat="44.41695" lon="6.07328">
        <ele>1397.8</ele>
        <time>2020-09-05T09:48:54.000Z</time>
      </trkpt>
      <trkpt lat="44.41693" lon="6.07316">
        <ele>1396</ele>
        <time>2020-09-05T09:48:57.000Z</time>
      </trkpt>
      <trkpt lat="44.41689" lon="6.07309">
        <ele>1396.5</ele>
        <time>2020-09-05T09:48:59.000Z</time>
      </trkpt>
      <trkpt lat="44.41684" lon="6.07301">
        <ele>1391.7</ele>
        <time>2020-09-05T09:49:01.000Z</time>
      </trkpt>
      <trkpt lat="44.41682" lon="6.07289">
        <ele>1390.3</ele>
        <time>2020-09-05T09:49:03.000Z</time>
      </trkpt>
      <trkpt lat="44.4168" lon="6.07277">
        <ele>1389.3</ele>
        <time>2020-09-05T09:49:05.000Z</time>
      </trkpt>
      <trkpt lat="44.4168" lon="6.07269">
        <ele>1387.4</ele>
        <time>2020-09-05T09:49:07.000Z</time>
      </trkpt>
      <trkpt lat="44.41681" lon="6.07262">
        <ele>1387.3</ele>
        <time>2020-09-05T09:49:08.000Z</time>
      </trkpt>
      <trkpt lat="44.41681" lon="6.07253">
        <ele>1387.1</ele>
        <time>2020-09-05T09:49:09.000Z</time>
      </trkpt>
      <trkpt lat="44.41681" lon="6.07234">
        <ele>1385.9</ele>
        <time>2020-09-05T09:49:11.000Z</time>
      </trkpt>
      <trkpt lat="44.41679" lon="6.07226">
        <ele>1387.7</ele>
        <time>2020-09-05T09:49:13.000Z</time>
      </trkpt>
      <trkpt lat="44.41677" lon="6.07218">
        <ele>1388.1</ele>
        <time>2020-09-05T09:49:15.000Z</time>
      </trkpt>
      <trkpt lat="44.4167" lon="6.072">
        <ele>1389.9</ele>
        <time>2020-09-05T09:49:18.000Z</time>
      </trkpt>
      <trkpt lat="44.41666" lon="6.07193">
        <ele>1390.9</ele>
        <time>2020-09-05T09:49:19.000Z</time>
      </trkpt>
      <trkpt lat="44.41661" lon="6.07179">
        <ele>1389.9</ele>
        <time>2020-09-05T09:49:21.000Z</time>
      </trkpt>
      <trkpt lat="44.41658" lon="6.07173">
        <ele>1388.6</ele>
        <time>2020-09-05T09:49:22.000Z</time>
      </trkpt>
      <trkpt lat="44.41654" lon="6.07166">
        <ele>1387</ele>
        <time>2020-09-05T09:49:24.000Z</time>
      </trkpt>
      <trkpt lat="44.41647" lon="6.07154">
        <ele>1386.1</ele>
        <time>2020-09-05T09:49:27.000Z</time>
      </trkpt>
      <trkpt lat="44.4164" lon="6.07151">
        <ele>1386.5</ele>
        <time>2020-09-05T09:49:29.685Z</time>
      </trkpt>
      <trkpt lat="44.41635" lon="6.07144">
        <ele>1381.9</ele>
        <time>2020-09-05T09:49:31.000Z</time>
      </trkpt>
      <trkpt lat="44.4163" lon="6.07139">
        <ele>1381.2</ele>
        <time>2020-09-05T09:49:32.000Z</time>
      </trkpt>
      <trkpt lat="44.41618" lon="6.07131">
        <ele>1380.8</ele>
        <time>2020-09-05T09:49:34.000Z</time>
      </trkpt>
      <trkpt lat="44.41612" lon="6.0713">
        <ele>1379.8</ele>
        <time>2020-09-05T09:49:35.000Z</time>
      </trkpt>
      <trkpt lat="44.41607" lon="6.07123">
        <ele>1376.1</ele>
        <time>2020-09-05T09:49:37.759Z</time>
      </trkpt>
      <trkpt lat="44.41599" lon="6.0712">
        <ele>1372.7</ele>
        <time>2020-09-05T09:49:40.000Z</time>
      </trkpt>
      <trkpt lat="44.41591" lon="6.07119">
        <ele>1373.8</ele>
        <time>2020-09-05T09:49:42.000Z</time>
      </trkpt>
      <trkpt lat="44.41589" lon="6.07109">
        <ele>1373.7</ele>
        <time>2020-09-05T09:49:44.548Z</time>
      </trkpt>
      <trkpt lat="44.41587" lon="6.07102">
        <ele>1373.5</ele>
        <time>2020-09-05T09:49:46.050Z</time>
      </trkpt>
      <trkpt lat="44.41585" lon="6.0707">
        <ele>1370.9</ele>
        <time>2020-09-05T09:49:47.000Z</time>
      </trkpt>
      <trkpt lat="44.41583" lon="6.0705">
        <ele>1370.8</ele>
        <time>2020-09-05T09:49:48.000Z</time>
      </trkpt>
      <trkpt lat="44.41581" lon="6.07023">
        <ele>1369.5</ele>
        <time>2020-09-05T09:49:50.000Z</time>
      </trkpt>
      <trkpt lat="44.41579" lon="6.0701">
        <ele>1368.6</ele>
        <time>2020-09-05T09:49:52.000Z</time>
      </trkpt>
      <trkpt lat="44.41576" lon="6.07004">
        <ele>1368.2</ele>
        <time>2020-09-05T09:49:53.000Z</time>
      </trkpt>
      <trkpt lat="44.41571" lon="6.06992">
        <ele>1366.3</ele>
        <time>2020-09-05T09:49:55.000Z</time>
      </trkpt>
      <trkpt lat="44.4157" lon="6.06973">
        <ele>1363.8</ele>
        <time>2020-09-05T09:49:58.000Z</time>
      </trkpt>
      <trkpt lat="44.41567" lon="6.06963">
        <ele>1363.7</ele>
        <time>2020-09-05T09:50:00.040Z</time>
      </trkpt>
      <trkpt lat="44.41563" lon="6.06952">
        <ele>1361.4</ele>
        <time>2020-09-05T09:50:02.758Z</time>
      </trkpt>
      <trkpt lat="44.41556" lon="6.06939">
        <ele>1361.8</ele>
        <time>2020-09-05T09:50:05.000Z</time>
      </trkpt>
      <trkpt lat="44.41549" lon="6.06923">
        <ele>1358.4</ele>
        <time>2020-09-05T09:50:07.000Z</time>
      </trkpt>
      <trkpt lat="44.41546" lon="6.06917">
        <ele>1358</ele>
        <time>2020-09-05T09:50:08.000Z</time>
      </trkpt>
      <trkpt lat="44.41546" lon="6.0691">
        <ele>1357.4</ele>
        <time>2020-09-05T09:50:09.000Z</time>
      </trkpt>
      <trkpt lat="44.41547" lon="6.06893">
        <ele>1353.6</ele>
        <time>2020-09-05T09:50:11.000Z</time>
      </trkpt>
      <trkpt lat="44.41545" lon="6.06877">
        <ele>1353.8</ele>
        <time>2020-09-05T09:50:13.000Z</time>
      </trkpt>
      <trkpt lat="44.41551" lon="6.06869">
        <ele>1352.9</ele>
        <time>2020-09-05T09:50:16.019Z</time>
      </trkpt>
      <trkpt lat="44.41555" lon="6.0686">
        <ele>1350.8</ele>
        <time>2020-09-05T09:50:17.000Z</time>
      </trkpt>
      <trkpt lat="44.41557" lon="6.06854">
        <ele>1346.4</ele>
        <time>2020-09-05T09:50:18.000Z</time>
      </trkpt>
      <trkpt lat="44.41558" lon="6.06845">
        <ele>1343.2</ele>
        <time>2020-09-05T09:50:22.003Z</time>
      </trkpt>
      <trkpt lat="44.41561" lon="6.06835">
        <ele>1339</ele>
        <time>2020-09-05T09:50:23.000Z</time>
      </trkpt>
      <trkpt lat="44.41562" lon="6.06826">
        <ele>1338.1</ele>
        <time>2020-09-05T09:50:24.000Z</time>
      </trkpt>
      <trkpt lat="44.41563" lon="6.0682">
        <ele>1337.4</ele>
        <time>2020-09-05T09:50:25.000Z</time>
      </trkpt>
      <trkpt lat="44.41565" lon="6.06808">
        <ele>1335.4</ele>
        <time>2020-09-05T09:50:28.000Z</time>
      </trkpt>
      <trkpt lat="44.41567" lon="6.06801">
        <ele>1335.5</ele>
        <time>2020-09-05T09:50:29.929Z</time>
      </trkpt>
      <trkpt lat="44.41562" lon="6.06797">
        <ele>1331</ele>
        <time>2020-09-05T09:50:32.000Z</time>
      </trkpt>
      <trkpt lat="44.41545" lon="6.06799">
        <ele>1329.8</ele>
        <time>2020-09-05T09:50:34.000Z</time>
      </trkpt>
      <trkpt lat="44.41537" lon="6.068">
        <ele>1330.6</ele>
        <time>2020-09-05T09:50:35.000Z</time>
      </trkpt>
      <trkpt lat="44.4153" lon="6.068">
        <ele>1329.7</ele>
        <time>2020-09-05T09:50:36.000Z</time>
      </trkpt>
      <trkpt lat="44.41522" lon="6.06801">
        <ele>1329.5</ele>
        <time>2020-09-05T09:50:38.000Z</time>
      </trkpt>
      <trkpt lat="44.41516" lon="6.06807">
        <ele>1328.6</ele>
        <time>2020-09-05T09:50:41.047Z</time>
      </trkpt>
      <trkpt lat="44.41508" lon="6.06809">
        <ele>1330.2</ele>
        <time>2020-09-05T09:50:44.731Z</time>
      </trkpt>
      <trkpt lat="44.41501" lon="6.06805">
        <ele>1332.7</ele>
        <time>2020-09-05T09:50:53.000Z</time>
      </trkpt>
      <trkpt lat="44.41495" lon="6.06799">
        <ele>1333.5</ele>
        <time>2020-09-05T09:50:57.000Z</time>
      </trkpt>
      <trkpt lat="44.41487" lon="6.06797">
        <ele>1331.9</ele>
        <time>2020-09-05T09:51:01.848Z</time>
      </trkpt>
      <trkpt lat="44.41478" lon="6.06795">
        <ele>1330.5</ele>
        <time>2020-09-05T09:51:04.526Z</time>
      </trkpt>
      <trkpt lat="44.41464" lon="6.0678">
        <ele>1331.1</ele>
        <time>2020-09-05T09:51:07.000Z</time>
      </trkpt>
      <trkpt lat="44.41457" lon="6.06771">
        <ele>1330.3</ele>
        <time>2020-09-05T09:51:08.000Z</time>
      </trkpt>
      <trkpt lat="44.41446" lon="6.0676">
        <ele>1329.7</ele>
        <time>2020-09-05T09:51:10.000Z</time>
      </trkpt>
      <trkpt lat="44.41437" lon="6.06748">
        <ele>1328.7</ele>
        <time>2020-09-05T09:51:12.000Z</time>
      </trkpt>
      <trkpt lat="44.41431" lon="6.0674">
        <ele>1329.6</ele>
        <time>2020-09-05T09:51:13.000Z</time>
      </trkpt>
      <trkpt lat="44.41424" lon="6.06732">
        <ele>1329.9</ele>
        <time>2020-09-05T09:51:14.000Z</time>
      </trkpt>
      <trkpt lat="44.41406" lon="6.06718">
        <ele>1328.8</ele>
        <time>2020-09-05T09:51:16.000Z</time>
      </trkpt>
      <trkpt lat="44.41399" lon="6.06712">
        <ele>1328.3</ele>
        <time>2020-09-05T09:51:17.000Z</time>
      </trkpt>
      <trkpt lat="44.41393" lon="6.06694">
        <ele>1327.4</ele>
        <time>2020-09-05T09:51:19.000Z</time>
      </trkpt>
      <trkpt lat="44.41389" lon="6.06679">
        <ele>1325.2</ele>
        <time>2020-09-05T09:51:21.000Z</time>
      </trkpt>
      <trkpt lat="44.41383" lon="6.0667">
        <ele>1321.6</ele>
        <time>2020-09-05T09:51:24.000Z</time>
      </trkpt>
      <trkpt lat="44.41377" lon="6.06668">
        <ele>1320</ele>
        <time>2020-09-05T09:51:34.736Z</time>
      </trkpt>
      <trkpt lat="44.41371" lon="6.06659">
        <ele>1322</ele>
        <time>2020-09-05T09:51:37.370Z</time>
      </trkpt>
      <trkpt lat="44.41361" lon="6.06649">
        <ele>1322.6</ele>
        <time>2020-09-05T09:51:39.000Z</time>
      </trkpt>
      <trkpt lat="44.41352" lon="6.06642">
        <ele>1324.6</ele>
        <time>2020-09-05T09:51:41.000Z</time>
      </trkpt>
      <trkpt lat="44.41348" lon="6.06638">
        <ele>1321.4</ele>
        <time>2020-09-05T09:51:42.295Z</time>
      </trkpt>
      <trkpt lat="44.41343" lon="6.06632">
        <ele>1321</ele>
        <time>2020-09-05T09:51:44.000Z</time>
      </trkpt>
      <trkpt lat="44.41338" lon="6.06629">
        <ele>1318.6</ele>
        <time>2020-09-05T09:51:46.000Z</time>
      </trkpt>
      <trkpt lat="44.41331" lon="6.06624">
        <ele>1316.1</ele>
        <time>2020-09-05T09:51:48.000Z</time>
      </trkpt>
      <trkpt lat="44.41324" lon="6.06622">
        <ele>1319.5</ele>
        <time>2020-09-05T09:51:58.000Z</time>
      </trkpt>
      <trkpt lat="44.41319" lon="6.06614">
        <ele>1319.3</ele>
        <time>2020-09-05T09:52:03.000Z</time>
      </trkpt>
      <trkpt lat="44.41314" lon="6.06606">
        <ele>1318.8</ele>
        <time>2020-09-05T09:52:06.000Z</time>
      </trkpt>
      <trkpt lat="44.41307" lon="6.06599">
        <ele>1319.5</ele>
        <time>2020-09-05T09:52:08.000Z</time>
      </trkpt>
      <trkpt lat="44.41301" lon="6.06596">
        <ele>1318.1</ele>
        <time>2020-09-05T09:52:10.000Z</time>
      </trkpt>
      <trkpt lat="44.41287" lon="6.06587">
        <ele>1320.5</ele>
        <time>2020-09-05T09:52:13.000Z</time>
      </trkpt>
      <trkpt lat="44.41281" lon="6.06585">
        <ele>1321.5</ele>
        <time>2020-09-05T09:52:14.000Z</time>
      </trkpt>
      <trkpt lat="44.41277" lon="6.06583">
        <ele>1323.7</ele>
        <time>2020-09-05T09:52:16.000Z</time>
      </trkpt>
      <trkpt lat="44.41269" lon="6.06583">
        <ele>1324.1</ele>
        <time>2020-09-05T09:52:19.000Z</time>
      </trkpt>
      <trkpt lat="44.41255" lon="6.06581">
        <ele>1323.4</ele>
        <time>2020-09-05T09:52:22.000Z</time>
      </trkpt>
      <trkpt lat="44.41249" lon="6.06582">
        <ele>1324.3</ele>
        <time>2020-09-05T09:52:23.000Z</time>
      </trkpt>
      <trkpt lat="44.41238" lon="6.0658">
        <ele>1325.5</ele>
        <time>2020-09-05T09:52:25.000Z</time>
      </trkpt>
      <trkpt lat="44.41233" lon="6.0658">
        <ele>1325.3</ele>
        <time>2020-09-05T09:52:30.000Z</time>
      </trkpt>
      <trkpt lat="44.41228" lon="6.0658">
        <ele>1329.2</ele>
        <time>2020-09-05T09:52:34.000Z</time>
      </trkpt>
      <trkpt lat="44.41221" lon="6.06582">
        <ele>1331.6</ele>
        <time>2020-09-05T09:52:42.741Z</time>
      </trkpt>
      <trkpt lat="44.41216" lon="6.06581">
        <ele>1331.8</ele>
        <time>2020-09-05T09:52:44.000Z</time>
      </trkpt>
      <trkpt lat="44.41213" lon="6.06575">
        <ele>1330.8</ele>
        <time>2020-09-05T09:52:46.942Z</time>
      </trkpt>
      <trkpt lat="44.41211" lon="6.06567">
        <ele>1328.7</ele>
        <time>2020-09-05T09:52:49.253Z</time>
      </trkpt>
      <trkpt lat="44.41209" lon="6.06559">
        <ele>1327.6</ele>
        <time>2020-09-05T09:52:51.704Z</time>
      </trkpt>
      <trkpt lat="44.41206" lon="6.06549">
        <ele>1328.3</ele>
        <time>2020-09-05T09:52:54.000Z</time>
      </trkpt>
      <trkpt lat="44.41203" lon="6.06542">
        <ele>1327.5</ele>
        <time>2020-09-05T09:52:55.882Z</time>
      </trkpt>
      <trkpt lat="44.41201" lon="6.06535">
        <ele>1327.4</ele>
        <time>2020-09-05T09:52:56.926Z</time>
      </trkpt>
      <trkpt lat="44.412" lon="6.06529">
        <ele>1326.4</ele>
        <time>2020-09-05T09:52:58.124Z</time>
      </trkpt>
      <trkpt lat="44.41201" lon="6.06521">
        <ele>1322.9</ele>
        <time>2020-09-05T09:52:59.563Z</time>
      </trkpt>
      <trkpt lat="44.41204" lon="6.06516">
        <ele>1320.8</ele>
        <time>2020-09-05T09:53:01.120Z</time>
      </trkpt>
      <trkpt lat="44.41207" lon="6.06505">
        <ele>1320.1</ele>
        <time>2020-09-05T09:53:03.960Z</time>
      </trkpt>
      <trkpt lat="44.41212" lon="6.06493">
        <ele>1313.8</ele>
        <time>2020-09-05T09:53:08.821Z</time>
      </trkpt>
      <trkpt lat="44.41216" lon="6.06486">
        <ele>1312</ele>
        <time>2020-09-05T09:53:10.941Z</time>
      </trkpt>
      <trkpt lat="44.4122" lon="6.06479">
        <ele>1309.8</ele>
        <time>2020-09-05T09:53:12.844Z</time>
      </trkpt>
      <trkpt lat="44.41221" lon="6.06472">
        <ele>1308.7</ele>
        <time>2020-09-05T09:53:15.000Z</time>
      </trkpt>
      <trkpt lat="44.41219" lon="6.06465">
        <ele>1308.6</ele>
        <time>2020-09-05T09:53:18.000Z</time>
      </trkpt>
      <trkpt lat="44.4122" lon="6.06458">
        <ele>1307.8</ele>
        <time>2020-09-05T09:53:20.000Z</time>
      </trkpt>
      <trkpt lat="44.41221" lon="6.06448">
        <ele>1305.8</ele>
        <time>2020-09-05T09:53:23.000Z</time>
      </trkpt>
      <trkpt lat="44.41221" lon="6.06439">
        <ele>1301.9</ele>
        <time>2020-09-05T09:53:25.723Z</time>
      </trkpt>
      <trkpt lat="44.41221" lon="6.06429">
        <ele>1296.4</ele>
        <time>2020-09-05T09:53:28.602Z</time>
      </trkpt>
      <trkpt lat="44.4122" lon="6.06418">
        <ele>1294.1</ele>
        <time>2020-09-05T09:53:30.941Z</time>
      </trkpt>
      <trkpt lat="44.41219" lon="6.06411">
        <ele>1293.9</ele>
        <time>2020-09-05T09:53:32.000Z</time>
      </trkpt>
      <trkpt lat="44.41217" lon="6.064">
        <ele>1292.6</ele>
        <time>2020-09-05T09:53:33.880Z</time>
      </trkpt>
      <trkpt lat="44.41211" lon="6.06383">
        <ele>1292.7</ele>
        <time>2020-09-05T09:53:35.000Z</time>
      </trkpt>
      <trkpt lat="44.41208" lon="6.06377">
        <ele>1291.8</ele>
        <time>2020-09-05T09:53:36.000Z</time>
      </trkpt>
      <trkpt lat="44.41205" lon="6.06368">
        <ele>1291.5</ele>
        <time>2020-09-05T09:53:37.464Z</time>
      </trkpt>
      <trkpt lat="44.41201" lon="6.06361">
        <ele>1290.8</ele>
        <time>2020-09-05T09:53:39.179Z</time>
      </trkpt>
      <trkpt lat="44.41195" lon="6.06349">
        <ele>1288.5</ele>
        <time>2020-09-05T09:53:42.188Z</time>
      </trkpt>
      <trkpt lat="44.41188" lon="6.06345">
        <ele>1287.6</ele>
        <time>2020-09-05T09:53:44.026Z</time>
      </trkpt>
      <trkpt lat="44.4118" lon="6.06336">
        <ele>1289.6</ele>
        <time>2020-09-05T09:53:45.000Z</time>
      </trkpt>
      <trkpt lat="44.41175" lon="6.06329">
        <ele>1288.8</ele>
        <time>2020-09-05T09:53:46.000Z</time>
      </trkpt>
      <trkpt lat="44.41167" lon="6.06315">
        <ele>1285.1</ele>
        <time>2020-09-05T09:53:48.000Z</time>
      </trkpt>
      <trkpt lat="44.41161" lon="6.06309">
        <ele>1283</ele>
        <time>2020-09-05T09:53:49.832Z</time>
      </trkpt>
      <trkpt lat="44.41157" lon="6.06304">
        <ele>1274</ele>
        <time>2020-09-05T09:53:52.000Z</time>
      </trkpt>
      <trkpt lat="44.4115" lon="6.06295">
        <ele>1273.2</ele>
        <time>2020-09-05T09:53:54.672Z</time>
      </trkpt>
      <trkpt lat="44.41146" lon="6.06292">
        <ele>1273.5</ele>
        <time>2020-09-05T09:53:55.912Z</time>
      </trkpt>
      <trkpt lat="44.41141" lon="6.06291">
        <ele>1275.2</ele>
        <time>2020-09-05T09:53:57.000Z</time>
      </trkpt>
      <trkpt lat="44.41136" lon="6.06287">
        <ele>1275.1</ele>
        <time>2020-09-05T09:53:58.000Z</time>
      </trkpt>
      <trkpt lat="44.41131" lon="6.06284">
        <ele>1275.7</ele>
        <time>2020-09-05T09:53:59.000Z</time>
      </trkpt>
      <trkpt lat="44.4112" lon="6.0628">
        <ele>1278.5</ele>
        <time>2020-09-05T09:54:01.000Z</time>
      </trkpt>
      <trkpt lat="44.41115" lon="6.06279">
        <ele>1279.2</ele>
        <time>2020-09-05T09:54:02.000Z</time>
      </trkpt>
      <trkpt lat="44.41105" lon="6.06276">
        <ele>1280.2</ele>
        <time>2020-09-05T09:54:04.988Z</time>
      </trkpt>
      <trkpt lat="44.41088" lon="6.06267">
        <ele>1287</ele>
        <time>2020-09-05T09:54:08.000Z</time>
      </trkpt>
      <trkpt lat="44.4108" lon="6.06265">
        <ele>1288.6</ele>
        <time>2020-09-05T09:54:09.000Z</time>
      </trkpt>
      <trkpt lat="44.41074" lon="6.06262">
        <ele>1289.8</ele>
        <time>2020-09-05T09:54:10.000Z</time>
      </trkpt>
      <trkpt lat="44.41064" lon="6.06257">
        <ele>1289.6</ele>
        <time>2020-09-05T09:54:12.000Z</time>
      </trkpt>
      <trkpt lat="44.41055" lon="6.06256">
        <ele>1290.6</ele>
        <time>2020-09-05T09:54:14.000Z</time>
      </trkpt>
      <trkpt lat="44.4105" lon="6.06254">
        <ele>1291</ele>
        <time>2020-09-05T09:54:15.335Z</time>
      </trkpt>
      <trkpt lat="44.41045" lon="6.06251">
        <ele>1291.6</ele>
        <time>2020-09-05T09:54:17.033Z</time>
      </trkpt>
      <trkpt lat="44.41038" lon="6.06249">
        <ele>1293.3</ele>
        <time>2020-09-05T09:54:19.000Z</time>
      </trkpt>
      <trkpt lat="44.41033" lon="6.06245">
        <ele>1293.8</ele>
        <time>2020-09-05T09:54:23.000Z</time>
      </trkpt>
      <trkpt lat="44.41029" lon="6.0624">
        <ele>1292.5</ele>
        <time>2020-09-05T09:54:25.000Z</time>
      </trkpt>
      <trkpt lat="44.41027" lon="6.06233">
        <ele>1291.9</ele>
        <time>2020-09-05T09:54:27.019Z</time>
      </trkpt>
      <trkpt lat="44.41028" lon="6.06225">
        <ele>1290.4</ele>
        <time>2020-09-05T09:54:30.053Z</time>
      </trkpt>
      <trkpt lat="44.41031" lon="6.06218">
        <ele>1291.8</ele>
        <time>2020-09-05T09:54:32.000Z</time>
      </trkpt>
      <trkpt lat="44.41034" lon="6.06212">
        <ele>1291.9</ele>
        <time>2020-09-05T09:54:33.895Z</time>
      </trkpt>
      <trkpt lat="44.41038" lon="6.06206">
        <ele>1289.9</ele>
        <time>2020-09-05T09:54:35.628Z</time>
      </trkpt>
      <trkpt lat="44.41041" lon="6.06198">
        <ele>1290.7</ele>
        <time>2020-09-05T09:54:38.072Z</time>
      </trkpt>
      <trkpt lat="44.41043" lon="6.06193">
        <ele>1290.5</ele>
        <time>2020-09-05T09:54:39.898Z</time>
      </trkpt>
      <trkpt lat="44.41047" lon="6.06188">
        <ele>1292</ele>
        <time>2020-09-05T09:54:41.000Z</time>
      </trkpt>
      <trkpt lat="44.41051" lon="6.06183">
        <ele>1291.1</ele>
        <time>2020-09-05T09:54:42.854Z</time>
      </trkpt>
      <trkpt lat="44.41059" lon="6.06175">
        <ele>1289.1</ele>
        <time>2020-09-05T09:54:46.000Z</time>
      </trkpt>
      <trkpt lat="44.4106" lon="6.06168">
        <ele>1288.1</ele>
        <time>2020-09-05T09:54:48.152Z</time>
      </trkpt>
      <trkpt lat="44.41062" lon="6.06151">
        <ele>1288.8</ele>
        <time>2020-09-05T09:54:51.090Z</time>
      </trkpt>
      <trkpt lat="44.41059" lon="6.06141">
        <ele>1286.2</ele>
        <time>2020-09-05T09:54:53.750Z</time>
      </trkpt>
      <trkpt lat="44.41056" lon="6.06136">
        <ele>1286.8</ele>
        <time>2020-09-05T09:54:55.000Z</time>
      </trkpt>
      <trkpt lat="44.41049" lon="6.0613">
        <ele>1281.8</ele>
        <time>2020-09-05T09:54:57.273Z</time>
      </trkpt>
      <trkpt lat="44.41036" lon="6.06125">
        <ele>1279.6</ele>
        <time>2020-09-05T09:55:00.000Z</time>
      </trkpt>
      <trkpt lat="44.41029" lon="6.06122">
        <ele>1279.7</ele>
        <time>2020-09-05T09:55:01.965Z</time>
      </trkpt>
      <trkpt lat="44.4102" lon="6.06123">
        <ele>1281.4</ele>
        <time>2020-09-05T09:55:05.000Z</time>
      </trkpt>
      <trkpt lat="44.41011" lon="6.06125">
        <ele>1281</ele>
        <time>2020-09-05T09:55:07.839Z</time>
      </trkpt>
      <trkpt lat="44.41008" lon="6.0612">
        <ele>1280.5</ele>
        <time>2020-09-05T09:55:09.041Z</time>
      </trkpt>
      <trkpt lat="44.41003" lon="6.06118">
        <ele>1280.9</ele>
        <time>2020-09-05T09:55:10.578Z</time>
      </trkpt>
      <trkpt lat="44.40998" lon="6.0612">
        <ele>1280.2</ele>
        <time>2020-09-05T09:55:11.800Z</time>
      </trkpt>
      <trkpt lat="44.40988" lon="6.06119">
        <ele>1278.2</ele>
        <time>2020-09-05T09:55:13.000Z</time>
      </trkpt>
      <trkpt lat="44.40978" lon="6.06125">
        <ele>1270.1</ele>
        <time>2020-09-05T09:55:16.000Z</time>
      </trkpt>
      <trkpt lat="44.40969" lon="6.06118">
        <ele>1263.1</ele>
        <time>2020-09-05T09:55:20.000Z</time>
      </trkpt>
      <trkpt lat="44.40963" lon="6.06118">
        <ele>1263.7</ele>
        <time>2020-09-05T09:55:21.000Z</time>
      </trkpt>
      <trkpt lat="44.4095" lon="6.06114">
        <ele>1264</ele>
        <time>2020-09-05T09:55:23.000Z</time>
      </trkpt>
      <trkpt lat="44.40946" lon="6.06112">
        <ele>1267</ele>
        <time>2020-09-05T09:55:34.000Z</time>
      </trkpt>
      <trkpt lat="44.40941" lon="6.06112">
        <ele>1269</ele>
        <time>2020-09-05T09:55:49.000Z</time>
      </trkpt>
      <trkpt lat="44.40944" lon="6.06103">
        <ele>1269.4</ele>
        <time>2020-09-05T09:58:42.000Z</time>
      </trkpt>
      <trkpt lat="44.40951" lon="6.06098">
        <ele>1268.6</ele>
        <time>2020-09-05T09:58:45.000Z</time>
      </trkpt>
      <trkpt lat="44.40959" lon="6.06089">
        <ele>1265.8</ele>
        <time>2020-09-05T09:58:48.000Z</time>
      </trkpt>
      <trkpt lat="44.40968" lon="6.06081">
        <ele>1262.2</ele>
        <time>2020-09-05T09:58:51.000Z</time>
      </trkpt>
      <trkpt lat="44.40976" lon="6.06075">
        <ele>1261.5</ele>
        <time>2020-09-05T09:58:53.000Z</time>
      </trkpt>
      <trkpt lat="44.40983" lon="6.0607">
        <ele>1258.5</ele>
        <time>2020-09-05T09:58:55.000Z</time>
      </trkpt>
      <trkpt lat="44.40989" lon="6.06054">
        <ele>1257.3</ele>
        <time>2020-09-05T09:58:58.000Z</time>
      </trkpt>
      <trkpt lat="44.40994" lon="6.06048">
        <ele>1257.5</ele>
        <time>2020-09-05T09:58:59.000Z</time>
      </trkpt>
      <trkpt lat="44.40998" lon="6.06044">
        <ele>1257.2</ele>
        <time>2020-09-05T09:59:00.000Z</time>
      </trkpt>
      <trkpt lat="44.41007" lon="6.06036">
        <ele>1257.4</ele>
        <time>2020-09-05T09:59:02.000Z</time>
      </trkpt>
      <trkpt lat="44.41012" lon="6.06038">
        <ele>1256.9</ele>
        <time>2020-09-05T09:59:03.509Z</time>
      </trkpt>
      <trkpt lat="44.41017" lon="6.0604">
        <ele>1256.6</ele>
        <time>2020-09-05T09:59:04.966Z</time>
      </trkpt>
      <trkpt lat="44.41025" lon="6.06041">
        <ele>1256.7</ele>
        <time>2020-09-05T09:59:07.000Z</time>
      </trkpt>
      <trkpt lat="44.41035" lon="6.06037">
        <ele>1256.2</ele>
        <time>2020-09-05T09:59:10.000Z</time>
      </trkpt>
      <trkpt lat="44.41044" lon="6.0603">
        <ele>1257.7</ele>
        <time>2020-09-05T09:59:12.945Z</time>
      </trkpt>
      <trkpt lat="44.41054" lon="6.06025">
        <ele>1255.9</ele>
        <time>2020-09-05T09:59:16.052Z</time>
      </trkpt>
      <trkpt lat="44.41057" lon="6.06017">
        <ele>1255</ele>
        <time>2020-09-05T10:00:41.000Z</time>
      </trkpt>
      <trkpt lat="44.41055" lon="6.06006">
        <ele>1250.5</ele>
        <time>2020-09-05T10:00:45.000Z</time>
      </trkpt>
      <trkpt lat="44.4105" lon="6.05997">
        <ele>1250.6</ele>
        <time>2020-09-05T10:00:46.000Z</time>
      </trkpt>
      <trkpt lat="44.41046" lon="6.05989">
        <ele>1249.5</ele>
        <time>2020-09-05T10:00:47.000Z</time>
      </trkpt>
      <trkpt lat="44.41044" lon="6.05981">
        <ele>1247.3</ele>
        <time>2020-09-05T10:00:48.455Z</time>
      </trkpt>
      <trkpt lat="44.41043" lon="6.05969">
        <ele>1244.8</ele>
        <time>2020-09-05T10:00:50.000Z</time>
      </trkpt>
      <trkpt lat="44.41041" lon="6.0596">
        <ele>1242.4</ele>
        <time>2020-09-05T10:00:51.000Z</time>
      </trkpt>
      <trkpt lat="44.41042" lon="6.05947">
        <ele>1240.7</ele>
        <time>2020-09-05T10:00:53.000Z</time>
      </trkpt>
      <trkpt lat="44.41048" lon="6.05942">
        <ele>1236.6</ele>
        <time>2020-09-05T10:00:57.691Z</time>
      </trkpt>
      <trkpt lat="44.41049" lon="6.05932">
        <ele>1235.2</ele>
        <time>2020-09-05T10:00:59.000Z</time>
      </trkpt>
      <trkpt lat="44.41047" lon="6.05919">
        <ele>1236.8</ele>
        <time>2020-09-05T10:01:00.907Z</time>
      </trkpt>
      <trkpt lat="44.41044" lon="6.05907">
        <ele>1238</ele>
        <time>2020-09-05T10:01:02.000Z</time>
      </trkpt>
      <trkpt lat="44.41045" lon="6.05899">
        <ele>1239.3</ele>
        <time>2020-09-05T10:01:03.804Z</time>
      </trkpt>
      <trkpt lat="44.4104" lon="6.05886">
        <ele>1238.8</ele>
        <time>2020-09-05T10:01:05.000Z</time>
      </trkpt>
      <trkpt lat="44.41037" lon="6.05877">
        <ele>1239.9</ele>
        <time>2020-09-05T10:01:07.820Z</time>
      </trkpt>
      <trkpt lat="44.41032" lon="6.05868">
        <ele>1233.7</ele>
        <time>2020-09-05T10:01:45.000Z</time>
      </trkpt>
      <trkpt lat="44.41026" lon="6.05858">
        <ele>1233.8</ele>
        <time>2020-09-05T10:01:46.000Z</time>
      </trkpt>
      <trkpt lat="44.41021" lon="6.05848">
        <ele>1230</ele>
        <time>2020-09-05T10:01:47.000Z</time>
      </trkpt>
      <trkpt lat="44.41018" lon="6.05841">
        <ele>1229.3</ele>
        <time>2020-09-05T10:01:48.567Z</time>
      </trkpt>
      <trkpt lat="44.41019" lon="6.05833">
        <ele>1219.5</ele>
        <time>2020-09-05T10:01:56.000Z</time>
      </trkpt>
      <trkpt lat="44.41017" lon="6.05813">
        <ele>1213.3</ele>
        <time>2020-09-05T10:02:00.000Z</time>
      </trkpt>
      <trkpt lat="44.41017" lon="6.0582">
        <ele>1213.4</ele>
        <time>2020-09-05T10:02:02.000Z</time>
      </trkpt>
      <trkpt lat="44.4101" lon="6.05813">
        <ele>1214.1</ele>
        <time>2020-09-05T10:02:04.036Z</time>
      </trkpt>
      <trkpt lat="44.41002" lon="6.05794">
        <ele>1216.3</ele>
        <time>2020-09-05T10:02:05.000Z</time>
      </trkpt>
      <trkpt lat="44.4099" lon="6.05767">
        <ele>1217.3</ele>
        <time>2020-09-05T10:02:07.000Z</time>
      </trkpt>
      <trkpt lat="44.40985" lon="6.05748">
        <ele>1217.9</ele>
        <time>2020-09-05T10:02:09.000Z</time>
      </trkpt>
      <trkpt lat="44.40974" lon="6.05733">
        <ele>1220.4</ele>
        <time>2020-09-05T10:02:11.000Z</time>
      </trkpt>
      <trkpt lat="44.40958" lon="6.05723">
        <ele>1222.9</ele>
        <time>2020-09-05T10:02:13.000Z</time>
      </trkpt>
      <trkpt lat="44.40942" lon="6.05711">
        <ele>1223.3</ele>
        <time>2020-09-05T10:02:15.000Z</time>
      </trkpt>
      <trkpt lat="44.40934" lon="6.05703">
        <ele>1223.5</ele>
        <time>2020-09-05T10:02:16.000Z</time>
      </trkpt>
      <trkpt lat="44.40927" lon="6.05697">
        <ele>1224.9</ele>
        <time>2020-09-05T10:02:17.000Z</time>
      </trkpt>
      <trkpt lat="44.40917" lon="6.05689">
        <ele>1228.1</ele>
        <time>2020-09-05T10:02:19.000Z</time>
      </trkpt>
      <trkpt lat="44.40907" lon="6.0568">
        <ele>1234.6</ele>
        <time>2020-09-05T10:02:22.000Z</time>
      </trkpt>
      <trkpt lat="44.40901" lon="6.05678">
        <ele>1236.4</ele>
        <time>2020-09-05T10:02:23.000Z</time>
      </trkpt>
      <trkpt lat="44.40895" lon="6.05675">
        <ele>1238.4</ele>
        <time>2020-09-05T10:02:24.254Z</time>
      </trkpt>
      <trkpt lat="44.40887" lon="6.05673">
        <ele>1239.4</ele>
        <time>2020-09-05T10:02:26.000Z</time>
      </trkpt>
      <trkpt lat="44.4087" lon="6.05666">
        <ele>1240.1</ele>
        <time>2020-09-05T10:02:29.000Z</time>
      </trkpt>
      <trkpt lat="44.40858" lon="6.05658">
        <ele>1240</ele>
        <time>2020-09-05T10:02:31.000Z</time>
      </trkpt>
      <trkpt lat="44.40852" lon="6.05655">
        <ele>1239.2</ele>
        <time>2020-09-05T10:02:32.000Z</time>
      </trkpt>
      <trkpt lat="44.40839" lon="6.05653">
        <ele>1240.7</ele>
        <time>2020-09-05T10:02:34.000Z</time>
      </trkpt>
      <trkpt lat="44.40833" lon="6.05652">
        <ele>1242.9</ele>
        <time>2020-09-05T10:02:35.000Z</time>
      </trkpt>
      <trkpt lat="44.40826" lon="6.05651">
        <ele>1244.9</ele>
        <time>2020-09-05T10:02:36.000Z</time>
      </trkpt>
      <trkpt lat="44.40818" lon="6.05649">
        <ele>1247.4</ele>
        <time>2020-09-05T10:02:37.000Z</time>
      </trkpt>
      <trkpt lat="44.40802" lon="6.05646">
        <ele>1251.6</ele>
        <time>2020-09-05T10:02:39.000Z</time>
      </trkpt>
      <trkpt lat="44.40791" lon="6.05645">
        <ele>1252.3</ele>
        <time>2020-09-05T10:02:40.331Z</time>
      </trkpt>
      <trkpt lat="44.40777" lon="6.05642">
        <ele>1254.9</ele>
        <time>2020-09-05T10:02:42.000Z</time>
      </trkpt>
      <trkpt lat="44.4077" lon="6.05641">
        <ele>1255.8</ele>
        <time>2020-09-05T10:02:43.000Z</time>
      </trkpt>
      <trkpt lat="44.40763" lon="6.05641">
        <ele>1257.6</ele>
        <time>2020-09-05T10:02:44.000Z</time>
      </trkpt>
      <trkpt lat="44.40756" lon="6.05638">
        <ele>1259.1</ele>
        <time>2020-09-05T10:02:45.000Z</time>
      </trkpt>
      <trkpt lat="44.40747" lon="6.05632">
        <ele>1262.9</ele>
        <time>2020-09-05T10:02:47.000Z</time>
      </trkpt>
      <trkpt lat="44.40741" lon="6.05631">
        <ele>1266.2</ele>
        <time>2020-09-05T10:02:49.000Z</time>
      </trkpt>
      <trkpt lat="44.40735" lon="6.05629">
        <ele>1265.7</ele>
        <time>2020-09-05T10:02:50.000Z</time>
      </trkpt>
      <trkpt lat="44.40716" lon="6.05622">
        <ele>1270.6</ele>
        <time>2020-09-05T10:02:52.000Z</time>
      </trkpt>
      <trkpt lat="44.40693" lon="6.05615">
        <ele>1274.7</ele>
        <time>2020-09-05T10:02:54.000Z</time>
      </trkpt>
      <trkpt lat="44.40675" lon="6.05615">
        <ele>1277.7</ele>
        <time>2020-09-05T10:02:56.000Z</time>
      </trkpt>
      <trkpt lat="44.40669" lon="6.05616">
        <ele>1277.9</ele>
        <time>2020-09-05T10:02:57.000Z</time>
      </trkpt>
      <trkpt lat="44.40662" lon="6.05618">
        <ele>1279.4</ele>
        <time>2020-09-05T10:02:58.000Z</time>
      </trkpt>
      <trkpt lat="44.4065" lon="6.05621">
        <ele>1279.5</ele>
        <time>2020-09-05T10:03:00.000Z</time>
      </trkpt>
      <trkpt lat="44.40643" lon="6.05623">
        <ele>1281</ele>
        <time>2020-09-05T10:03:03.106Z</time>
      </trkpt>
      <trkpt lat="44.40636" lon="6.05622">
        <ele>1283.9</ele>
        <time>2020-09-05T10:03:05.000Z</time>
      </trkpt>
      <trkpt lat="44.40627" lon="6.05612">
        <ele>1291.7</ele>
        <time>2020-09-05T10:03:19.000Z</time>
      </trkpt>
      <trkpt lat="44.40616" lon="6.0559">
        <ele>1292</ele>
        <time>2020-09-05T10:03:21.000Z</time>
      </trkpt>
      <trkpt lat="44.40607" lon="6.05582">
        <ele>1294.2</ele>
        <time>2020-09-05T10:03:25.000Z</time>
      </trkpt>
      <trkpt lat="44.40595" lon="6.05574">
        <ele>1295.5</ele>
        <time>2020-09-05T10:03:28.000Z</time>
      </trkpt>
      <trkpt lat="44.40591" lon="6.0557">
        <ele>1294.5</ele>
        <time>2020-09-05T10:03:29.381Z</time>
      </trkpt>
      <trkpt lat="44.40582" lon="6.05567">
        <ele>1294.6</ele>
        <time>2020-09-05T10:03:31.000Z</time>
      </trkpt>
      <trkpt lat="44.40576" lon="6.05568">
        <ele>1297.6</ele>
        <time>2020-09-05T10:03:34.000Z</time>
      </trkpt>
      <trkpt lat="44.4057" lon="6.0557">
        <ele>1298.8</ele>
        <time>2020-09-05T10:03:36.000Z</time>
      </trkpt>
      <trkpt lat="44.40562" lon="6.05568">
        <ele>1300.1</ele>
        <time>2020-09-05T10:03:38.000Z</time>
      </trkpt>
      <trkpt lat="44.40555" lon="6.05567">
        <ele>1301.3</ele>
        <time>2020-09-05T10:03:40.000Z</time>
      </trkpt>
      <trkpt lat="44.4055" lon="6.05566">
        <ele>1301.3</ele>
        <time>2020-09-05T10:03:42.000Z</time>
      </trkpt>
      <trkpt lat="44.40543" lon="6.05563">
        <ele>1303</ele>
        <time>2020-09-05T10:03:44.000Z</time>
      </trkpt>
      <trkpt lat="44.40538" lon="6.05559">
        <ele>1306.1</ele>
        <time>2020-09-05T10:03:46.000Z</time>
      </trkpt>
      <trkpt lat="44.40533" lon="6.05555">
        <ele>1306.3</ele>
        <time>2020-09-05T10:03:51.215Z</time>
      </trkpt>
      <trkpt lat="44.40531" lon="6.0555">
        <ele>1310.1</ele>
        <time>2020-09-05T10:04:03.000Z</time>
      </trkpt>
      <trkpt lat="44.40526" lon="6.05552">
        <ele>1309</ele>
        <time>2020-09-05T10:04:22.000Z</time>
      </trkpt>
      <trkpt lat="44.40532" lon="6.05549">
        <ele>1309.5</ele>
        <time>2020-09-05T10:04:41.000Z</time>
      </trkpt>
      <trkpt lat="44.40528" lon="6.05554">
        <ele>1314.2</ele>
        <time>2020-09-05T10:05:01.000Z</time>
      </trkpt>
      <trkpt lat="44.40524" lon="6.05559">
        <ele>1322.5</ele>
        <time>2020-09-05T10:05:47.721Z</time>
      </trkpt>
      <trkpt lat="44.40528" lon="6.0556">
        <ele>1323.2</ele>
        <time>2020-09-05T10:08:13.437Z</time>
      </trkpt>
      <trkpt lat="44.40521" lon="6.05563">
        <ele>1323.6</ele>
        <time>2020-09-05T10:08:20.000Z</time>
      </trkpt>
      <trkpt lat="44.40525" lon="6.05559">
        <ele>1329.9</ele>
        <time>2020-09-05T10:08:56.000Z</time>
      </trkpt>
      <trkpt lat="44.4053" lon="6.05556">
        <ele>1326.2</ele>
        <time>2020-09-05T10:09:17.369Z</time>
      </trkpt>
      <trkpt lat="44.40528" lon="6.05548">
        <ele>1315.8</ele>
        <time>2020-09-05T10:12:35.000Z</time>
      </trkpt>
      <trkpt lat="44.40523" lon="6.0555">
        <ele>1318.6</ele>
        <time>2020-09-05T10:12:42.213Z</time>
      </trkpt>
      <trkpt lat="44.40516" lon="6.05552">
        <ele>1325.8</ele>
        <time>2020-09-05T10:12:56.000Z</time>
      </trkpt>
      <trkpt lat="44.40509" lon="6.05552">
        <ele>1326</ele>
        <time>2020-09-05T10:13:05.000Z</time>
      </trkpt>
      <trkpt lat="44.40504" lon="6.05551">
        <ele>1326</ele>
        <time>2020-09-05T10:13:12.399Z</time>
      </trkpt>
      <trkpt lat="44.40499" lon="6.05552">
        <ele>1325.9</ele>
        <time>2020-09-05T10:13:20.000Z</time>
      </trkpt>
      <trkpt lat="44.40491" lon="6.05553">
        <ele>1328.8</ele>
        <time>2020-09-05T10:13:31.534Z</time>
      </trkpt>
      <trkpt lat="44.40486" lon="6.05538">
        <ele>1311.7</ele>
        <time>2020-09-05T10:13:50.000Z</time>
      </trkpt>
      <trkpt lat="44.40479" lon="6.05541">
        <ele>1316.9</ele>
        <time>2020-09-05T10:14:01.653Z</time>
      </trkpt>
      <trkpt lat="44.40474" lon="6.05544">
        <ele>1319.4</ele>
        <time>2020-09-05T10:14:08.000Z</time>
      </trkpt>
      <trkpt lat="44.4047" lon="6.0555">
        <ele>1320.1</ele>
        <time>2020-09-05T10:14:14.713Z</time>
      </trkpt>
      <trkpt lat="44.40465" lon="6.05553">
        <ele>1321.4</ele>
        <time>2020-09-05T10:14:29.570Z</time>
      </trkpt>
      <trkpt lat="44.40467" lon="6.05559">
        <ele>1332.4</ele>
        <time>2020-09-05T10:14:50.000Z</time>
      </trkpt>
      <trkpt lat="44.40465" lon="6.05553">
        <ele>1330.3</ele>
        <time>2020-09-05T10:16:39.000Z</time>
      </trkpt>
      <trkpt lat="44.4046" lon="6.05553">
        <ele>1327.3</ele>
        <time>2020-09-05T10:17:40.000Z</time>
      </trkpt>
      <trkpt lat="44.40454" lon="6.05548">
        <ele>1324.2</ele>
        <time>2020-09-05T10:17:55.000Z</time>
      </trkpt>
      <trkpt lat="44.40455" lon="6.05555">
        <ele>1324.8</ele>
        <time>2020-09-05T10:19:12.000Z</time>
      </trkpt>
      <trkpt lat="44.40459" lon="6.05555">
        <ele>1325.5</ele>
        <time>2020-09-05T10:21:03.000Z</time>
      </trkpt>
      <trkpt lat="44.40456" lon="6.05559">
        <ele>1323.1</ele>
        <time>2020-09-05T10:21:14.911Z</time>
      </trkpt>
      <trkpt lat="44.40449" lon="6.05557">
        <ele>1323.2</ele>
        <time>2020-09-05T10:21:17.652Z</time>
      </trkpt>
      <trkpt lat="44.40444" lon="6.05557">
        <ele>1322.8</ele>
        <time>2020-09-05T10:21:20.093Z</time>
      </trkpt>
      <trkpt lat="44.40438" lon="6.05558">
        <ele>1320</ele>
        <time>2020-09-05T10:21:22.000Z</time>
      </trkpt>
      <trkpt lat="44.40432" lon="6.0556">
        <ele>1322.5</ele>
        <time>2020-09-05T10:21:24.035Z</time>
      </trkpt>
      <trkpt lat="44.40412" lon="6.05565">
        <ele>1321.5</ele>
        <time>2020-09-05T10:21:26.435Z</time>
      </trkpt>
      <trkpt lat="44.40407" lon="6.05564">
        <ele>1321.4</ele>
        <time>2020-09-05T10:21:29.351Z</time>
      </trkpt>
      <trkpt lat="44.40401" lon="6.05568">
        <ele>1319.5</ele>
        <time>2020-09-05T10:21:32.000Z</time>
      </trkpt>
      <trkpt lat="44.40395" lon="6.05573">
        <ele>1317.2</ele>
        <time>2020-09-05T10:21:34.000Z</time>
      </trkpt>
      <trkpt lat="44.40393" lon="6.05578">
        <ele>1315.9</ele>
        <time>2020-09-05T10:21:35.774Z</time>
      </trkpt>
      <trkpt lat="44.4039" lon="6.05584">
        <ele>1316.2</ele>
        <time>2020-09-05T10:21:37.000Z</time>
      </trkpt>
      <trkpt lat="44.40386" lon="6.0559">
        <ele>1315.5</ele>
        <time>2020-09-05T10:21:39.000Z</time>
      </trkpt>
      <trkpt lat="44.4038" lon="6.056">
        <ele>1314.5</ele>
        <time>2020-09-05T10:21:41.000Z</time>
      </trkpt>
      <trkpt lat="44.40376" lon="6.05607">
        <ele>1314.3</ele>
        <time>2020-09-05T10:21:42.811Z</time>
      </trkpt>
      <trkpt lat="44.40373" lon="6.05612">
        <ele>1314.6</ele>
        <time>2020-09-05T10:21:45.000Z</time>
      </trkpt>
      <trkpt lat="44.40369" lon="6.05615">
        <ele>1312.1</ele>
        <time>2020-09-05T10:21:57.000Z</time>
      </trkpt>
      <trkpt lat="44.40365" lon="6.05617">
        <ele>1312.1</ele>
        <time>2020-09-05T10:22:40.460Z</time>
      </trkpt>
      <trkpt lat="44.40366" lon="6.05623">
        <ele>1312.8</ele>
        <time>2020-09-05T10:23:01.000Z</time>
      </trkpt>
      <trkpt lat="44.40373" lon="6.05617">
        <ele>1313</ele>
        <time>2020-09-05T10:23:10.687Z</time>
      </trkpt>
      <trkpt lat="44.40384" lon="6.05602">
        <ele>1311.9</ele>
        <time>2020-09-05T10:23:13.000Z</time>
      </trkpt>
      <trkpt lat="44.40385" lon="6.05596">
        <ele>1314</ele>
        <time>2020-09-05T10:26:30.000Z</time>
      </trkpt>
      <trkpt lat="44.40383" lon="6.05588">
        <ele>1313.4</ele>
        <time>2020-09-05T10:26:34.000Z</time>
      </trkpt>
      <trkpt lat="44.4038" lon="6.0558">
        <ele>1313.5</ele>
        <time>2020-09-05T10:26:37.515Z</time>
      </trkpt>
      <trkpt lat="44.40378" lon="6.05573">
        <ele>1312.3</ele>
        <time>2020-09-05T10:26:39.000Z</time>
      </trkpt>
      <trkpt lat="44.40377" lon="6.05563">
        <ele>1311.3</ele>
        <time>2020-09-05T10:26:41.000Z</time>
      </trkpt>
      <trkpt lat="44.40374" lon="6.05552">
        <ele>1309.9</ele>
        <time>2020-09-05T10:26:44.000Z</time>
      </trkpt>
      <trkpt lat="44.4037" lon="6.05545">
        <ele>1310.5</ele>
        <time>2020-09-05T10:26:46.000Z</time>
      </trkpt>
      <trkpt lat="44.40362" lon="6.05539">
        <ele>1309.8</ele>
        <time>2020-09-05T10:26:48.000Z</time>
      </trkpt>
      <trkpt lat="44.40358" lon="6.05537">
        <ele>1309.1</ele>
        <time>2020-09-05T10:26:49.000Z</time>
      </trkpt>
      <trkpt lat="44.40346" lon="6.05532">
        <ele>1307</ele>
        <time>2020-09-05T10:26:52.000Z</time>
      </trkpt>
      <trkpt lat="44.40339" lon="6.05525">
        <ele>1306.2</ele>
        <time>2020-09-05T10:26:54.000Z</time>
      </trkpt>
      <trkpt lat="44.40335" lon="6.05521">
        <ele>1306.7</ele>
        <time>2020-09-05T10:26:55.000Z</time>
      </trkpt>
      <trkpt lat="44.40331" lon="6.05515">
        <ele>1306.3</ele>
        <time>2020-09-05T10:26:56.000Z</time>
      </trkpt>
      <trkpt lat="44.40324" lon="6.05506">
        <ele>1304.7</ele>
        <time>2020-09-05T10:26:58.000Z</time>
      </trkpt>
      <trkpt lat="44.40314" lon="6.05498">
        <ele>1301.1</ele>
        <time>2020-09-05T10:27:01.000Z</time>
      </trkpt>
      <trkpt lat="44.4031" lon="6.05496">
        <ele>1299.1</ele>
        <time>2020-09-05T10:27:02.615Z</time>
      </trkpt>
      <trkpt lat="44.40302" lon="6.05492">
        <ele>1297.6</ele>
        <time>2020-09-05T10:27:05.116Z</time>
      </trkpt>
      <trkpt lat="44.40292" lon="6.05482">
        <ele>1295.9</ele>
        <time>2020-09-05T10:27:07.000Z</time>
      </trkpt>
      <trkpt lat="44.40284" lon="6.0547">
        <ele>1294.2</ele>
        <time>2020-09-05T10:27:09.000Z</time>
      </trkpt>
      <trkpt lat="44.40282" lon="6.05462">
        <ele>1294.3</ele>
        <time>2020-09-05T10:27:10.866Z</time>
      </trkpt>
      <trkpt lat="44.40279" lon="6.05455">
        <ele>1291.1</ele>
        <time>2020-09-05T10:27:12.000Z</time>
      </trkpt>
      <trkpt lat="44.40276" lon="6.05449">
        <ele>1289.5</ele>
        <time>2020-09-05T10:27:13.348Z</time>
      </trkpt>
      <trkpt lat="44.40274" lon="6.05439">
        <ele>1286.6</ele>
        <time>2020-09-05T10:27:15.988Z</time>
      </trkpt>
      <trkpt lat="44.40271" lon="6.05432">
        <ele>1286</ele>
        <time>2020-09-05T10:27:17.965Z</time>
      </trkpt>
      <trkpt lat="44.40268" lon="6.05421">
        <ele>1285.7</ele>
        <time>2020-09-05T10:27:20.694Z</time>
      </trkpt>
      <trkpt lat="44.40261" lon="6.05413">
        <ele>1286.4</ele>
        <time>2020-09-05T10:27:24.129Z</time>
      </trkpt>
      <trkpt lat="44.40257" lon="6.05411">
        <ele>1288.8</ele>
        <time>2020-09-05T10:27:25.000Z</time>
      </trkpt>
      <trkpt lat="44.40252" lon="6.05408">
        <ele>1289.7</ele>
        <time>2020-09-05T10:27:26.000Z</time>
      </trkpt>
      <trkpt lat="44.40247" lon="6.05406">
        <ele>1288.6</ele>
        <time>2020-09-05T10:27:27.790Z</time>
      </trkpt>
      <trkpt lat="44.40236" lon="6.05401">
        <ele>1285.4</ele>
        <time>2020-09-05T10:27:30.550Z</time>
      </trkpt>
      <trkpt lat="44.40232" lon="6.05397">
        <ele>1285.5</ele>
        <time>2020-09-05T10:27:31.672Z</time>
      </trkpt>
      <trkpt lat="44.40228" lon="6.05392">
        <ele>1284.3</ele>
        <time>2020-09-05T10:27:32.811Z</time>
      </trkpt>
      <trkpt lat="44.40224" lon="6.05386">
        <ele>1283.1</ele>
        <time>2020-09-05T10:27:34.000Z</time>
      </trkpt>
      <trkpt lat="44.40219" lon="6.05377">
        <ele>1282.1</ele>
        <time>2020-09-05T10:27:36.000Z</time>
      </trkpt>
      <trkpt lat="44.40216" lon="6.0537">
        <ele>1280.5</ele>
        <time>2020-09-05T10:27:38.000Z</time>
      </trkpt>
      <trkpt lat="44.40212" lon="6.05361">
        <ele>1282.1</ele>
        <time>2020-09-05T10:27:39.670Z</time>
      </trkpt>
      <trkpt lat="44.40208" lon="6.05353">
        <ele>1279.4</ele>
        <time>2020-09-05T10:27:41.000Z</time>
      </trkpt>
      <trkpt lat="44.40203" lon="6.05346">
        <ele>1279</ele>
        <time>2020-09-05T10:27:42.469Z</time>
      </trkpt>
      <trkpt lat="44.40199" lon="6.0534">
        <ele>1278.8</ele>
        <time>2020-09-05T10:27:43.770Z</time>
      </trkpt>
      <trkpt lat="44.40194" lon="6.05333">
        <ele>1276.8</ele>
        <time>2020-09-05T10:27:45.189Z</time>
      </trkpt>
      <trkpt lat="44.40191" lon="6.05328">
        <ele>1276.3</ele>
        <time>2020-09-05T10:27:46.568Z</time>
      </trkpt>
      <trkpt lat="44.40184" lon="6.05321">
        <ele>1275.6</ele>
        <time>2020-09-05T10:27:48.811Z</time>
      </trkpt>
      <trkpt lat="44.4018" lon="6.05318">
        <ele>1273.5</ele>
        <time>2020-09-05T10:27:50.000Z</time>
      </trkpt>
      <trkpt lat="44.40174" lon="6.05313">
        <ele>1272.4</ele>
        <time>2020-09-05T10:27:52.173Z</time>
      </trkpt>
      <trkpt lat="44.40172" lon="6.05307">
        <ele>1269.1</ele>
        <time>2020-09-05T10:27:53.993Z</time>
      </trkpt>
      <trkpt lat="44.40166" lon="6.05298">
        <ele>1266.7</ele>
        <time>2020-09-05T10:27:56.206Z</time>
      </trkpt>
      <trkpt lat="44.40163" lon="6.05294">
        <ele>1266.8</ele>
        <time>2020-09-05T10:27:57.626Z</time>
      </trkpt>
      <trkpt lat="44.40158" lon="6.05291">
        <ele>1266.1</ele>
        <time>2020-09-05T10:27:59.000Z</time>
      </trkpt>
      <trkpt lat="44.40148" lon="6.05288">
        <ele>1267.2</ele>
        <time>2020-09-05T10:28:01.625Z</time>
      </trkpt>
      <trkpt lat="44.4013" lon="6.05286">
        <ele>1263.8</ele>
        <time>2020-09-05T10:28:03.000Z</time>
      </trkpt>
      <trkpt lat="44.40113" lon="6.05278">
        <ele>1264.1</ele>
        <time>2020-09-05T10:28:05.000Z</time>
      </trkpt>
      <trkpt lat="44.401" lon="6.05269">
        <ele>1263.7</ele>
        <time>2020-09-05T10:28:07.000Z</time>
      </trkpt>
      <trkpt lat="44.40095" lon="6.05265">
        <ele>1263.5</ele>
        <time>2020-09-05T10:28:08.703Z</time>
      </trkpt>
      <trkpt lat="44.4009" lon="6.0526">
        <ele>1264.3</ele>
        <time>2020-09-05T10:28:10.000Z</time>
      </trkpt>
      <trkpt lat="44.40085" lon="6.05256">
        <ele>1264.3</ele>
        <time>2020-09-05T10:28:11.738Z</time>
      </trkpt>
      <trkpt lat="44.40077" lon="6.05252">
        <ele>1263.9</ele>
        <time>2020-09-05T10:28:13.000Z</time>
      </trkpt>
      <trkpt lat="44.4007" lon="6.05249">
        <ele>1263.8</ele>
        <time>2020-09-05T10:28:14.000Z</time>
      </trkpt>
      <trkpt lat="44.40061" lon="6.05245">
        <ele>1263.9</ele>
        <time>2020-09-05T10:28:15.000Z</time>
      </trkpt>
      <trkpt lat="44.40043" lon="6.0524">
        <ele>1262.9</ele>
        <time>2020-09-05T10:28:17.000Z</time>
      </trkpt>
      <trkpt lat="44.40034" lon="6.05239">
        <ele>1262.6</ele>
        <time>2020-09-05T10:28:18.000Z</time>
      </trkpt>
      <trkpt lat="44.40015" lon="6.05238">
        <ele>1263.1</ele>
        <time>2020-09-05T10:28:20.000Z</time>
      </trkpt>
      <trkpt lat="44.40008" lon="6.05236">
        <ele>1262.5</ele>
        <time>2020-09-05T10:28:21.000Z</time>
      </trkpt>
      <trkpt lat="44.3999" lon="6.05231">
        <ele>1261.6</ele>
        <time>2020-09-05T10:28:23.000Z</time>
      </trkpt>
      <trkpt lat="44.3998" lon="6.0523">
        <ele>1259.8</ele>
        <time>2020-09-05T10:28:24.000Z</time>
      </trkpt>
      <trkpt lat="44.39965" lon="6.05231">
        <ele>1258</ele>
        <time>2020-09-05T10:28:26.000Z</time>
      </trkpt>
      <trkpt lat="44.39959" lon="6.0523">
        <ele>1257.4</ele>
        <time>2020-09-05T10:28:27.000Z</time>
      </trkpt>
      <trkpt lat="44.39953" lon="6.05225">
        <ele>1256</ele>
        <time>2020-09-05T10:28:28.000Z</time>
      </trkpt>
      <trkpt lat="44.39949" lon="6.0522">
        <ele>1255.2</ele>
        <time>2020-09-05T10:28:29.000Z</time>
      </trkpt>
      <trkpt lat="44.3994" lon="6.05207">
        <ele>1255.3</ele>
        <time>2020-09-05T10:28:31.000Z</time>
      </trkpt>
      <trkpt lat="44.39935" lon="6.05201">
        <ele>1254.6</ele>
        <time>2020-09-05T10:28:32.000Z</time>
      </trkpt>
      <trkpt lat="44.39927" lon="6.0519">
        <ele>1254.2</ele>
        <time>2020-09-05T10:28:34.000Z</time>
      </trkpt>
      <trkpt lat="44.39923" lon="6.05181">
        <ele>1254.3</ele>
        <time>2020-09-05T10:28:36.000Z</time>
      </trkpt>
      <trkpt lat="44.3992" lon="6.0517">
        <ele>1253.5</ele>
        <time>2020-09-05T10:28:38.000Z</time>
      </trkpt>
      <trkpt lat="44.39917" lon="6.05165">
        <ele>1254.6</ele>
        <time>2020-09-05T10:28:39.000Z</time>
      </trkpt>
      <trkpt lat="44.3991" lon="6.05155">
        <ele>1254</ele>
        <time>2020-09-05T10:28:41.000Z</time>
      </trkpt>
      <trkpt lat="44.39905" lon="6.05154">
        <ele>1254.9</ele>
        <time>2020-09-05T10:28:43.451Z</time>
      </trkpt>
      <trkpt lat="44.39897" lon="6.05148">
        <ele>1253.5</ele>
        <time>2020-09-05T10:28:45.000Z</time>
      </trkpt>
      <trkpt lat="44.39892" lon="6.05142">
        <ele>1253.1</ele>
        <time>2020-09-05T10:28:46.609Z</time>
      </trkpt>
      <trkpt lat="44.3989" lon="6.05136">
        <ele>1252.5</ele>
        <time>2020-09-05T10:28:48.107Z</time>
      </trkpt>
      <trkpt lat="44.39888" lon="6.05128">
        <ele>1251.5</ele>
        <time>2020-09-05T10:28:49.726Z</time>
      </trkpt>
      <trkpt lat="44.39884" lon="6.05112">
        <ele>1249.2</ele>
        <time>2020-09-05T10:28:51.000Z</time>
      </trkpt>
      <trkpt lat="44.39876" lon="6.05094">
        <ele>1249.2</ele>
        <time>2020-09-05T10:28:53.000Z</time>
      </trkpt>
      <trkpt lat="44.39871" lon="6.05086">
        <ele>1247.9</ele>
        <time>2020-09-05T10:28:54.000Z</time>
      </trkpt>
      <trkpt lat="44.39862" lon="6.05072">
        <ele>1248.1</ele>
        <time>2020-09-05T10:28:56.000Z</time>
      </trkpt>
      <trkpt lat="44.39861" lon="6.05063">
        <ele>1247.6</ele>
        <time>2020-09-05T10:28:57.000Z</time>
      </trkpt>
      <trkpt lat="44.39858" lon="6.05055">
        <ele>1248.2</ele>
        <time>2020-09-05T10:28:58.000Z</time>
      </trkpt>
      <trkpt lat="44.39853" lon="6.05045">
        <ele>1247.4</ele>
        <time>2020-09-05T10:29:00.000Z</time>
      </trkpt>
      <trkpt lat="44.39851" lon="6.05033">
        <ele>1244.1</ele>
        <time>2020-09-05T10:29:03.000Z</time>
      </trkpt>
      <trkpt lat="44.39851" lon="6.05025">
        <ele>1243.5</ele>
        <time>2020-09-05T10:29:07.000Z</time>
      </trkpt>
      <trkpt lat="44.39847" lon="6.05019">
        <ele>1241.4</ele>
        <time>2020-09-05T10:29:24.274Z</time>
      </trkpt>
      <trkpt lat="44.39858" lon="6.05008">
        <ele>1236.6</ele>
        <time>2020-09-05T10:29:27.000Z</time>
      </trkpt>
      <trkpt lat="44.39868" lon="6.04996">
        <ele>1235.3</ele>
        <time>2020-09-05T10:29:29.000Z</time>
      </trkpt>
      <trkpt lat="44.39869" lon="6.04986">
        <ele>1229.4</ele>
        <time>2020-09-05T10:29:32.000Z</time>
      </trkpt>
      <trkpt lat="44.3988" lon="6.0497">
        <ele>1228.7</ele>
        <time>2020-09-05T10:29:34.000Z</time>
      </trkpt>
      <trkpt lat="44.3989" lon="6.04955">
        <ele>1224.3</ele>
        <time>2020-09-05T10:29:36.000Z</time>
      </trkpt>
      <trkpt lat="44.399" lon="6.04943">
        <ele>1223.6</ele>
        <time>2020-09-05T10:29:38.000Z</time>
      </trkpt>
      <trkpt lat="44.39902" lon="6.04935">
        <ele>1222.9</ele>
        <time>2020-09-05T10:29:39.000Z</time>
      </trkpt>
      <trkpt lat="44.39914" lon="6.04911">
        <ele>1217.5</ele>
        <time>2020-09-05T10:29:43.000Z</time>
      </trkpt>
      <trkpt lat="44.3992" lon="6.049">
        <ele>1216.5</ele>
        <time>2020-09-05T10:29:44.000Z</time>
      </trkpt>
      <trkpt lat="44.39928" lon="6.0489">
        <ele>1212.9</ele>
        <time>2020-09-05T10:29:45.000Z</time>
      </trkpt>
      <trkpt lat="44.39943" lon="6.04877">
        <ele>1204.9</ele>
        <time>2020-09-05T10:29:47.000Z</time>
      </trkpt>
      <trkpt lat="44.39955" lon="6.04869">
        <ele>1206.4</ele>
        <time>2020-09-05T10:29:49.000Z</time>
      </trkpt>
      <trkpt lat="44.39964" lon="6.04855">
        <ele>1202.6</ele>
        <time>2020-09-05T10:29:51.000Z</time>
      </trkpt>
      <trkpt lat="44.39972" lon="6.04842">
        <ele>1198.9</ele>
        <time>2020-09-05T10:29:53.000Z</time>
      </trkpt>
      <trkpt lat="44.39977" lon="6.04836">
        <ele>1198.5</ele>
        <time>2020-09-05T10:29:54.000Z</time>
      </trkpt>
      <trkpt lat="44.39979" lon="6.04829">
        <ele>1199.4</ele>
        <time>2020-09-05T10:29:55.000Z</time>
      </trkpt>
      <trkpt lat="44.39983" lon="6.04823">
        <ele>1200.4</ele>
        <time>2020-09-05T10:29:56.000Z</time>
      </trkpt>
      <trkpt lat="44.39994" lon="6.04809">
        <ele>1195.6</ele>
        <time>2020-09-05T10:29:58.000Z</time>
      </trkpt>
      <trkpt lat="44.39998" lon="6.04801">
        <ele>1192.7</ele>
        <time>2020-09-05T10:29:59.000Z</time>
      </trkpt>
      <trkpt lat="44.40008" lon="6.04783">
        <ele>1191.6</ele>
        <time>2020-09-05T10:30:01.000Z</time>
      </trkpt>
      <trkpt lat="44.40014" lon="6.04776">
        <ele>1191.3</ele>
        <time>2020-09-05T10:30:02.000Z</time>
      </trkpt>
      <trkpt lat="44.4002" lon="6.04771">
        <ele>1190.8</ele>
        <time>2020-09-05T10:30:03.000Z</time>
      </trkpt>
      <trkpt lat="44.40032" lon="6.04766">
        <ele>1190</ele>
        <time>2020-09-05T10:30:05.000Z</time>
      </trkpt>
      <trkpt lat="44.40043" lon="6.04759">
        <ele>1191.4</ele>
        <time>2020-09-05T10:30:07.000Z</time>
      </trkpt>
      <trkpt lat="44.40046" lon="6.04752">
        <ele>1192.7</ele>
        <time>2020-09-05T10:30:08.000Z</time>
      </trkpt>
      <trkpt lat="44.4005" lon="6.04738">
        <ele>1192.7</ele>
        <time>2020-09-05T10:30:10.000Z</time>
      </trkpt>
      <trkpt lat="44.40048" lon="6.04727">
        <ele>1191.4</ele>
        <time>2020-09-05T10:30:12.000Z</time>
      </trkpt>
      <trkpt lat="44.40044" lon="6.04716">
        <ele>1188</ele>
        <time>2020-09-05T10:30:14.000Z</time>
      </trkpt>
      <trkpt lat="44.40046" lon="6.04707">
        <ele>1188</ele>
        <time>2020-09-05T10:30:15.223Z</time>
      </trkpt>
      <trkpt lat="44.40049" lon="6.04697">
        <ele>1183</ele>
        <time>2020-09-05T10:30:17.000Z</time>
      </trkpt>
      <trkpt lat="44.40053" lon="6.04691">
        <ele>1178.3</ele>
        <time>2020-09-05T10:30:19.920Z</time>
      </trkpt>
      <trkpt lat="44.40056" lon="6.04685">
        <ele>1174.4</ele>
        <time>2020-09-05T10:30:21.000Z</time>
      </trkpt>
      <trkpt lat="44.40069" lon="6.04672">
        <ele>1165.7</ele>
        <time>2020-09-05T10:30:28.000Z</time>
      </trkpt>
      <trkpt lat="44.40076" lon="6.04664">
        <ele>1166.4</ele>
        <time>2020-09-05T10:30:29.000Z</time>
      </trkpt>
      <trkpt lat="44.40082" lon="6.04658">
        <ele>1164.7</ele>
        <time>2020-09-05T10:30:30.000Z</time>
      </trkpt>
      <trkpt lat="44.40078" lon="6.04665">
        <ele>1161.5</ele>
        <time>2020-09-05T10:30:32.000Z</time>
      </trkpt>
      <trkpt lat="44.40082" lon="6.04651">
        <ele>1161.1</ele>
        <time>2020-09-05T10:30:33.625Z</time>
      </trkpt>
      <trkpt lat="44.40093" lon="6.04618">
        <ele>1157.9</ele>
        <time>2020-09-05T10:30:34.847Z</time>
      </trkpt>
      <trkpt lat="44.40095" lon="6.04611">
        <ele>1156.9</ele>
        <time>2020-09-05T10:30:36.067Z</time>
      </trkpt>
      <trkpt lat="44.40096" lon="6.04605">
        <ele>1157.5</ele>
        <time>2020-09-05T10:30:37.000Z</time>
      </trkpt>
      <trkpt lat="44.40097" lon="6.04594">
        <ele>1158.1</ele>
        <time>2020-09-05T10:30:39.000Z</time>
      </trkpt>
      <trkpt lat="44.40097" lon="6.04587">
        <ele>1158.4</ele>
        <time>2020-09-05T10:30:44.504Z</time>
      </trkpt>
      <trkpt lat="44.40094" lon="6.04578">
        <ele>1156.4</ele>
        <time>2020-09-05T10:30:47.532Z</time>
      </trkpt>
      <trkpt lat="44.40091" lon="6.04569">
        <ele>1155.3</ele>
        <time>2020-09-05T10:30:49.825Z</time>
      </trkpt>
      <trkpt lat="44.4009" lon="6.04547">
        <ele>1154</ele>
        <time>2020-09-05T10:30:51.000Z</time>
      </trkpt>
      <trkpt lat="44.40085" lon="6.04529">
        <ele>1152.3</ele>
        <time>2020-09-05T10:30:53.000Z</time>
      </trkpt>
      <trkpt lat="44.40082" lon="6.04522">
        <ele>1151.7</ele>
        <time>2020-09-05T10:30:54.000Z</time>
      </trkpt>
      <trkpt lat="44.40078" lon="6.04518">
        <ele>1151.8</ele>
        <time>2020-09-05T10:30:55.000Z</time>
      </trkpt>
      <trkpt lat="44.40067" lon="6.04512">
        <ele>1150.6</ele>
        <time>2020-09-05T10:30:57.000Z</time>
      </trkpt>
      <trkpt lat="44.40059" lon="6.0451">
        <ele>1149.8</ele>
        <time>2020-09-05T10:30:58.000Z</time>
      </trkpt>
      <trkpt lat="44.40045" lon="6.04509">
        <ele>1146.7</ele>
        <time>2020-09-05T10:31:00.000Z</time>
      </trkpt>
      <trkpt lat="44.40038" lon="6.04507">
        <ele>1146.7</ele>
        <time>2020-09-05T10:31:01.000Z</time>
      </trkpt>
      <trkpt lat="44.40031" lon="6.04505">
        <ele>1146.2</ele>
        <time>2020-09-05T10:31:02.000Z</time>
      </trkpt>
      <trkpt lat="44.40016" lon="6.04496">
        <ele>1145.3</ele>
        <time>2020-09-05T10:31:04.000Z</time>
      </trkpt>
      <trkpt lat="44.4001" lon="6.04492">
        <ele>1145.3</ele>
        <time>2020-09-05T10:31:05.000Z</time>
      </trkpt>
      <trkpt lat="44.4" lon="6.04485">
        <ele>1143.1</ele>
        <time>2020-09-05T10:31:07.000Z</time>
      </trkpt>
      <trkpt lat="44.39997" lon="6.04478">
        <ele>1147.1</ele>
        <time>2020-09-05T10:31:09.000Z</time>
      </trkpt>
      <trkpt lat="44.39994" lon="6.04472">
        <ele>1145.2</ele>
        <time>2020-09-05T10:31:18.000Z</time>
      </trkpt>
      <trkpt lat="44.39992" lon="6.04466">
        <ele>1145.2</ele>
        <time>2020-09-05T10:31:58.000Z</time>
      </trkpt>
      <trkpt lat="44.39994" lon="6.04477">
        <ele>1146.1</ele>
        <time>2020-09-05T10:32:03.000Z</time>
      </trkpt>
      <trkpt lat="44.39999" lon="6.04481">
        <ele>1148.6</ele>
        <time>2020-09-05T10:32:06.000Z</time>
      </trkpt>
      <trkpt lat="44.40003" lon="6.04475">
        <ele>1147</ele>
        <time>2020-09-05T10:32:13.000Z</time>
      </trkpt>
      <trkpt lat="44.40007" lon="6.04467">
        <ele>1149.5</ele>
        <time>2020-09-05T10:32:15.000Z</time>
      </trkpt>
      <trkpt lat="44.4001" lon="6.04459">
        <ele>1148.6</ele>
        <time>2020-09-05T10:32:17.000Z</time>
      </trkpt>
      <trkpt lat="44.40014" lon="6.0445">
        <ele>1149.5</ele>
        <time>2020-09-05T10:32:20.000Z</time>
      </trkpt>
      <trkpt lat="44.40016" lon="6.04443">
        <ele>1151.9</ele>
        <time>2020-09-05T10:32:45.000Z</time>
      </trkpt>
      <trkpt lat="44.40019" lon="6.04437">
        <ele>1146.5</ele>
        <time>2020-09-05T10:32:55.000Z</time>
      </trkpt>
      <trkpt lat="44.40021" lon="6.04431">
        <ele>1146.9</ele>
        <time>2020-09-05T10:33:00.715Z</time>
      </trkpt>
      <trkpt lat="44.40023" lon="6.04425">
        <ele>1146.4</ele>
        <time>2020-09-05T10:33:08.001Z</time>
      </trkpt>
      <trkpt lat="44.40027" lon="6.04421">
        <ele>1139.2</ele>
        <time>2020-09-05T10:33:24.595Z</time>
      </trkpt>
      <trkpt lat="44.40032" lon="6.04419">
        <ele>1135.1</ele>
        <time>2020-09-05T10:33:32.000Z</time>
      </trkpt>
      <trkpt lat="44.40028" lon="6.04426">
        <ele>1137.2</ele>
        <time>2020-09-05T10:33:47.402Z</time>
      </trkpt>
      <trkpt lat="44.40025" lon="6.04431">
        <ele>1137.4</ele>
        <time>2020-09-05T10:33:51.000Z</time>
      </trkpt>
      <trkpt lat="44.40022" lon="6.04437">
        <ele>1140.2</ele>
        <time>2020-09-05T10:33:53.637Z</time>
      </trkpt>
      <trkpt lat="44.40019" lon="6.04454">
        <ele>1140.6</ele>
        <time>2020-09-05T10:33:56.702Z</time>
      </trkpt>
      <trkpt lat="44.40014" lon="6.04465">
        <ele>1140.8</ele>
        <time>2020-09-05T10:33:57.983Z</time>
      </trkpt>
      <trkpt lat="44.4001" lon="6.04472">
        <ele>1141.5</ele>
        <time>2020-09-05T10:33:59.000Z</time>
      </trkpt>
      <trkpt lat="44.40003" lon="6.04474">
        <ele>1141.1</ele>
        <time>2020-09-05T10:34:00.783Z</time>
      </trkpt>
      <trkpt lat="44.39998" lon="6.04473">
        <ele>1140.6</ele>
        <time>2020-09-05T10:34:01.925Z</time>
      </trkpt>
      <trkpt lat="44.39992" lon="6.04466">
        <ele>1140.3</ele>
        <time>2020-09-05T10:34:04.158Z</time>
      </trkpt>
      <trkpt lat="44.39993" lon="6.04456">
        <ele>1140.3</ele>
        <time>2020-09-05T10:34:06.000Z</time>
      </trkpt>
      <trkpt lat="44.39996" lon="6.04448">
        <ele>1140.1</ele>
        <time>2020-09-05T10:34:07.743Z</time>
      </trkpt>
      <trkpt lat="44.4" lon="6.04441">
        <ele>1140.4</ele>
        <time>2020-09-05T10:34:09.043Z</time>
      </trkpt>
      <trkpt lat="44.40008" lon="6.04432">
        <ele>1140.7</ele>
        <time>2020-09-05T10:34:10.000Z</time>
      </trkpt>
      <trkpt lat="44.40018" lon="6.04419">
        <ele>1136.8</ele>
        <time>2020-09-05T10:34:12.000Z</time>
      </trkpt>
      <trkpt lat="44.40023" lon="6.04413">
        <ele>1137.7</ele>
        <time>2020-09-05T10:34:13.000Z</time>
      </trkpt>
      <trkpt lat="44.40027" lon="6.04407">
        <ele>1137.1</ele>
        <time>2020-09-05T10:34:14.000Z</time>
      </trkpt>
      <trkpt lat="44.40031" lon="6.04401">
        <ele>1137.4</ele>
        <time>2020-09-05T10:34:15.000Z</time>
      </trkpt>
      <trkpt lat="44.40036" lon="6.04393">
        <ele>1136.2</ele>
        <time>2020-09-05T10:34:16.929Z</time>
      </trkpt>
      <trkpt lat="44.40039" lon="6.04382">
        <ele>1136</ele>
        <time>2020-09-05T10:34:18.000Z</time>
      </trkpt>
      <trkpt lat="44.40041" lon="6.04374">
        <ele>1135.1</ele>
        <time>2020-09-05T10:34:19.000Z</time>
      </trkpt>
      <trkpt lat="44.4004" lon="6.04353">
        <ele>1135</ele>
        <time>2020-09-05T10:34:21.000Z</time>
      </trkpt>
      <trkpt lat="44.40037" lon="6.04343">
        <ele>1134.8</ele>
        <time>2020-09-05T10:34:22.000Z</time>
      </trkpt>
      <trkpt lat="44.40034" lon="6.04333">
        <ele>1133.5</ele>
        <time>2020-09-05T10:34:23.000Z</time>
      </trkpt>
      <trkpt lat="44.40028" lon="6.04319">
        <ele>1132.1</ele>
        <time>2020-09-05T10:34:25.000Z</time>
      </trkpt>
      <trkpt lat="44.40021" lon="6.04306">
        <ele>1130.5</ele>
        <time>2020-09-05T10:34:27.000Z</time>
      </trkpt>
      <trkpt lat="44.40017" lon="6.04287">
        <ele>1129.5</ele>
        <time>2020-09-05T10:34:29.000Z</time>
      </trkpt>
      <trkpt lat="44.40017" lon="6.04277">
        <ele>1129.2</ele>
        <time>2020-09-05T10:34:30.000Z</time>
      </trkpt>
      <trkpt lat="44.40018" lon="6.04268">
        <ele>1129.7</ele>
        <time>2020-09-05T10:34:31.000Z</time>
      </trkpt>
      <trkpt lat="44.40023" lon="6.04249">
        <ele>1127.9</ele>
        <time>2020-09-05T10:34:33.000Z</time>
      </trkpt>
      <trkpt lat="44.40027" lon="6.0424">
        <ele>1126.9</ele>
        <time>2020-09-05T10:34:34.000Z</time>
      </trkpt>
      <trkpt lat="44.40031" lon="6.0422">
        <ele>1126.2</ele>
        <time>2020-09-05T10:34:36.000Z</time>
      </trkpt>
      <trkpt lat="44.40032" lon="6.04199">
        <ele>1124.8</ele>
        <time>2020-09-05T10:34:38.000Z</time>
      </trkpt>
      <trkpt lat="44.40032" lon="6.04188">
        <ele>1124.5</ele>
        <time>2020-09-05T10:34:39.000Z</time>
      </trkpt>
      <trkpt lat="44.40032" lon="6.04166">
        <ele>1125.1</ele>
        <time>2020-09-05T10:34:41.000Z</time>
      </trkpt>
      <trkpt lat="44.40031" lon="6.04152">
        <ele>1123.9</ele>
        <time>2020-09-05T10:34:42.000Z</time>
      </trkpt>
      <trkpt lat="44.40023" lon="6.04125">
        <ele>1122.1</ele>
        <time>2020-09-05T10:34:44.000Z</time>
      </trkpt>
      <trkpt lat="44.40013" lon="6.0409">
        <ele>1120.2</ele>
        <time>2020-09-05T10:34:46.000Z</time>
      </trkpt>
      <trkpt lat="44.40004" lon="6.04055">
        <ele>1117.5</ele>
        <time>2020-09-05T10:34:48.000Z</time>
      </trkpt>
      <trkpt lat="44.4" lon="6.0404">
        <ele>1117.6</ele>
        <time>2020-09-05T10:34:49.000Z</time>
      </trkpt>
      <trkpt lat="44.39988" lon="6.04013">
        <ele>1114.3</ele>
        <time>2020-09-05T10:34:51.000Z</time>
      </trkpt>
      <trkpt lat="44.39975" lon="6.03983">
        <ele>1116.3</ele>
        <time>2020-09-05T10:34:53.000Z</time>
      </trkpt>
      <trkpt lat="44.39963" lon="6.03951">
        <ele>1116.3</ele>
        <time>2020-09-05T10:34:55.000Z</time>
      </trkpt>
      <trkpt lat="44.39959" lon="6.03934">
        <ele>1115.9</ele>
        <time>2020-09-05T10:34:56.000Z</time>
      </trkpt>
      <trkpt lat="44.39954" lon="6.03916">
        <ele>1114</ele>
        <time>2020-09-05T10:34:57.000Z</time>
      </trkpt>
      <trkpt lat="44.39947" lon="6.03883">
        <ele>1113.1</ele>
        <time>2020-09-05T10:34:59.000Z</time>
      </trkpt>
      <trkpt lat="44.39944" lon="6.03866">
        <ele>1112.6</ele>
        <time>2020-09-05T10:35:00.000Z</time>
      </trkpt>
      <trkpt lat="44.39937" lon="6.03835">
        <ele>1110.1</ele>
        <time>2020-09-05T10:35:02.000Z</time>
      </trkpt>
      <trkpt lat="44.39933" lon="6.03819">
        <ele>1108.8</ele>
        <time>2020-09-05T10:35:03.000Z</time>
      </trkpt>
      <trkpt lat="44.39929" lon="6.03803">
        <ele>1108.3</ele>
        <time>2020-09-05T10:35:04.000Z</time>
      </trkpt>
      <trkpt lat="44.39925" lon="6.03788">
        <ele>1108.5</ele>
        <time>2020-09-05T10:35:05.000Z</time>
      </trkpt>
      <trkpt lat="44.39916" lon="6.03756">
        <ele>1108.9</ele>
        <time>2020-09-05T10:35:07.000Z</time>
      </trkpt>
      <trkpt lat="44.39911" lon="6.03738">
        <ele>1107.2</ele>
        <time>2020-09-05T10:35:08.000Z</time>
      </trkpt>
      <trkpt lat="44.39903" lon="6.03709">
        <ele>1104.1</ele>
        <time>2020-09-05T10:35:10.000Z</time>
      </trkpt>
      <trkpt lat="44.39899" lon="6.03682">
        <ele>1102.8</ele>
        <time>2020-09-05T10:35:12.000Z</time>
      </trkpt>
      <trkpt lat="44.39899" lon="6.03671">
        <ele>1102.5</ele>
        <time>2020-09-05T10:35:13.000Z</time>
      </trkpt>
      <trkpt lat="44.39901" lon="6.03663">
        <ele>1100.5</ele>
        <time>2020-09-05T10:35:14.000Z</time>
      </trkpt>
      <trkpt lat="44.39907" lon="6.03652">
        <ele>1095</ele>
        <time>2020-09-05T10:35:16.000Z</time>
      </trkpt>
      <trkpt lat="44.39915" lon="6.0365">
        <ele>1091.7</ele>
        <time>2020-09-05T10:35:18.000Z</time>
      </trkpt>
      <trkpt lat="44.39929" lon="6.03655">
        <ele>1089</ele>
        <time>2020-09-05T10:35:20.000Z</time>
      </trkpt>
      <trkpt lat="44.39945" lon="6.03656">
        <ele>1088.5</ele>
        <time>2020-09-05T10:35:22.000Z</time>
      </trkpt>
      <trkpt lat="44.39961" lon="6.03659">
        <ele>1088.3</ele>
        <time>2020-09-05T10:35:24.000Z</time>
      </trkpt>
      <trkpt lat="44.39969" lon="6.03661">
        <ele>1088.8</ele>
        <time>2020-09-05T10:35:25.000Z</time>
      </trkpt>
      <trkpt lat="44.39985" lon="6.03662">
        <ele>1085.8</ele>
        <time>2020-09-05T10:35:27.000Z</time>
      </trkpt>
      <trkpt lat="44.39999" lon="6.03662">
        <ele>1083.6</ele>
        <time>2020-09-05T10:35:29.000Z</time>
      </trkpt>
      <trkpt lat="44.40005" lon="6.03661">
        <ele>1084.2</ele>
        <time>2020-09-05T10:35:30.000Z</time>
      </trkpt>
      <trkpt lat="44.40011" lon="6.0366">
        <ele>1083.9</ele>
        <time>2020-09-05T10:35:31.000Z</time>
      </trkpt>
      <trkpt lat="44.40018" lon="6.03659">
        <ele>1083.6</ele>
        <time>2020-09-05T10:35:32.000Z</time>
      </trkpt>
      <trkpt lat="44.40032" lon="6.03657">
        <ele>1079.7</ele>
        <time>2020-09-05T10:35:34.000Z</time>
      </trkpt>
      <trkpt lat="44.40039" lon="6.03655">
        <ele>1077.5</ele>
        <time>2020-09-05T10:35:35.000Z</time>
      </trkpt>
      <trkpt lat="44.40047" lon="6.0365">
        <ele>1079</ele>
        <time>2020-09-05T10:35:36.000Z</time>
      </trkpt>
      <trkpt lat="44.40065" lon="6.03638">
        <ele>1074.1</ele>
        <time>2020-09-05T10:35:38.000Z</time>
      </trkpt>
      <trkpt lat="44.40074" lon="6.03631">
        <ele>1073.7</ele>
        <time>2020-09-05T10:35:39.000Z</time>
      </trkpt>
      <trkpt lat="44.40083" lon="6.03625">
        <ele>1073.2</ele>
        <time>2020-09-05T10:35:40.000Z</time>
      </trkpt>
      <trkpt lat="44.40093" lon="6.03619">
        <ele>1070.3</ele>
        <time>2020-09-05T10:35:41.000Z</time>
      </trkpt>
      <trkpt lat="44.40104" lon="6.03614">
        <ele>1070.5</ele>
        <time>2020-09-05T10:35:42.338Z</time>
      </trkpt>
      <trkpt lat="44.40124" lon="6.03609">
        <ele>1068.4</ele>
        <time>2020-09-05T10:35:44.000Z</time>
      </trkpt>
      <trkpt lat="44.40134" lon="6.03606">
        <ele>1068.3</ele>
        <time>2020-09-05T10:35:45.000Z</time>
      </trkpt>
      <trkpt lat="44.40154" lon="6.03601">
        <ele>1066.6</ele>
        <time>2020-09-05T10:35:47.000Z</time>
      </trkpt>
      <trkpt lat="44.40175" lon="6.03603">
        <ele>1065.8</ele>
        <time>2020-09-05T10:35:49.000Z</time>
      </trkpt>
      <trkpt lat="44.40196" lon="6.03616">
        <ele>1064.1</ele>
        <time>2020-09-05T10:35:51.000Z</time>
      </trkpt>
      <trkpt lat="44.40206" lon="6.03626">
        <ele>1063.2</ele>
        <time>2020-09-05T10:35:52.000Z</time>
      </trkpt>
      <trkpt lat="44.40217" lon="6.03637">
        <ele>1062.7</ele>
        <time>2020-09-05T10:35:53.000Z</time>
      </trkpt>
      <trkpt lat="44.40229" lon="6.03648">
        <ele>1062.1</ele>
        <time>2020-09-05T10:35:54.000Z</time>
      </trkpt>
      <trkpt lat="44.40253" lon="6.03668">
        <ele>1058.1</ele>
        <time>2020-09-05T10:35:56.000Z</time>
      </trkpt>
      <trkpt lat="44.40265" lon="6.03678">
        <ele>1056.7</ele>
        <time>2020-09-05T10:35:57.000Z</time>
      </trkpt>
      <trkpt lat="44.40276" lon="6.03689">
        <ele>1055</ele>
        <time>2020-09-05T10:35:58.000Z</time>
      </trkpt>
      <trkpt lat="44.40299" lon="6.03713">
        <ele>1055.3</ele>
        <time>2020-09-05T10:36:00.000Z</time>
      </trkpt>
      <trkpt lat="44.40311" lon="6.03727">
        <ele>1054.3</ele>
        <time>2020-09-05T10:36:01.000Z</time>
      </trkpt>
      <trkpt lat="44.40333" lon="6.03753">
        <ele>1053.4</ele>
        <time>2020-09-05T10:36:03.000Z</time>
      </trkpt>
      <trkpt lat="44.40356" lon="6.03781">
        <ele>1052.3</ele>
        <time>2020-09-05T10:36:05.000Z</time>
      </trkpt>
      <trkpt lat="44.40367" lon="6.03793">
        <ele>1052</ele>
        <time>2020-09-05T10:36:06.000Z</time>
      </trkpt>
      <trkpt lat="44.40391" lon="6.0381">
        <ele>1048.7</ele>
        <time>2020-09-05T10:36:08.000Z</time>
      </trkpt>
      <trkpt lat="44.40416" lon="6.0382">
        <ele>1048</ele>
        <time>2020-09-05T10:36:10.000Z</time>
      </trkpt>
      <trkpt lat="44.40441" lon="6.03823">
        <ele>1041.2</ele>
        <time>2020-09-05T10:36:12.000Z</time>
      </trkpt>
      <trkpt lat="44.40467" lon="6.03813">
        <ele>1038.7</ele>
        <time>2020-09-05T10:36:14.000Z</time>
      </trkpt>
      <trkpt lat="44.4048" lon="6.03804">
        <ele>1037.5</ele>
        <time>2020-09-05T10:36:15.000Z</time>
      </trkpt>
      <trkpt lat="44.40493" lon="6.03793">
        <ele>1036.6</ele>
        <time>2020-09-05T10:36:16.000Z</time>
      </trkpt>
      <trkpt lat="44.4052" lon="6.03772">
        <ele>1035</ele>
        <time>2020-09-05T10:36:18.000Z</time>
      </trkpt>
      <trkpt lat="44.40529" lon="6.0376">
        <ele>1029.7</ele>
        <time>2020-09-05T10:36:19.000Z</time>
      </trkpt>
      <trkpt lat="44.40546" lon="6.03731">
        <ele>1025.2</ele>
        <time>2020-09-05T10:36:21.000Z</time>
      </trkpt>
      <trkpt lat="44.40573" lon="6.03696">
        <ele>1022.3</ele>
        <time>2020-09-05T10:36:23.000Z</time>
      </trkpt>
      <trkpt lat="44.40603" lon="6.03664">
        <ele>1022.5</ele>
        <time>2020-09-05T10:36:25.000Z</time>
      </trkpt>
      <trkpt lat="44.40616" lon="6.03652">
        <ele>1022.5</ele>
        <time>2020-09-05T10:36:26.000Z</time>
      </trkpt>
      <trkpt lat="44.40639" lon="6.03633">
        <ele>1023.9</ele>
        <time>2020-09-05T10:36:28.000Z</time>
      </trkpt>
      <trkpt lat="44.40648" lon="6.03626">
        <ele>1024.6</ele>
        <time>2020-09-05T10:36:29.000Z</time>
      </trkpt>
      <trkpt lat="44.40655" lon="6.0362">
        <ele>1024.3</ele>
        <time>2020-09-05T10:36:30.000Z</time>
      </trkpt>
      <trkpt lat="44.40662" lon="6.03619">
        <ele>1023.8</ele>
        <time>2020-09-05T10:36:32.000Z</time>
      </trkpt>
      <trkpt lat="44.40664" lon="6.03629">
        <ele>1023.5</ele>
        <time>2020-09-05T10:36:34.000Z</time>
      </trkpt>
      <trkpt lat="44.40669" lon="6.03645">
        <ele>1024.1</ele>
        <time>2020-09-05T10:36:36.000Z</time>
      </trkpt>
      <trkpt lat="44.4067" lon="6.03654">
        <ele>1024</ele>
        <time>2020-09-05T10:36:37.000Z</time>
      </trkpt>
      <trkpt lat="44.40674" lon="6.03669">
        <ele>1022.8</ele>
        <time>2020-09-05T10:36:39.000Z</time>
      </trkpt>
      <trkpt lat="44.40682" lon="6.03679">
        <ele>1021.7</ele>
        <time>2020-09-05T10:36:41.000Z</time>
      </trkpt>
      <trkpt lat="44.40688" lon="6.03683">
        <ele>1022</ele>
        <time>2020-09-05T10:36:42.000Z</time>
      </trkpt>
      <trkpt lat="44.40695" lon="6.03686">
        <ele>1023</ele>
        <time>2020-09-05T10:36:43.000Z</time>
      </trkpt>
      <trkpt lat="44.40707" lon="6.03689">
        <ele>1026.3</ele>
        <time>2020-09-05T10:36:45.000Z</time>
      </trkpt>
      <trkpt lat="44.40712" lon="6.03687">
        <ele>1022.7</ele>
        <time>2020-09-05T10:36:46.000Z</time>
      </trkpt>
      <trkpt lat="44.40717" lon="6.03684">
        <ele>1022</ele>
        <time>2020-09-05T10:36:47.000Z</time>
      </trkpt>
      <trkpt lat="44.40724" lon="6.03677">
        <ele>1019.8</ele>
        <time>2020-09-05T10:36:48.000Z</time>
      </trkpt>
      <trkpt lat="44.40733" lon="6.03668">
        <ele>1018.2</ele>
        <time>2020-09-05T10:36:49.000Z</time>
      </trkpt>
      <trkpt lat="44.4075" lon="6.03649">
        <ele>1015</ele>
        <time>2020-09-05T10:36:51.000Z</time>
      </trkpt>
      <trkpt lat="44.4076" lon="6.03642">
        <ele>1014.4</ele>
        <time>2020-09-05T10:36:52.000Z</time>
      </trkpt>
      <trkpt lat="44.4078" lon="6.03633">
        <ele>1016.6</ele>
        <time>2020-09-05T10:36:54.000Z</time>
      </trkpt>
      <trkpt lat="44.4079" lon="6.03632">
        <ele>1016.2</ele>
        <time>2020-09-05T10:36:55.000Z</time>
      </trkpt>
      <trkpt lat="44.40801" lon="6.03631">
        <ele>1016.1</ele>
        <time>2020-09-05T10:36:56.000Z</time>
      </trkpt>
      <trkpt lat="44.40822" lon="6.0363">
        <ele>1019.1</ele>
        <time>2020-09-05T10:36:58.000Z</time>
      </trkpt>
      <trkpt lat="44.40832" lon="6.03628">
        <ele>1019.7</ele>
        <time>2020-09-05T10:36:59.000Z</time>
      </trkpt>
      <trkpt lat="44.4084" lon="6.03626">
        <ele>1016.2</ele>
        <time>2020-09-05T10:37:00.000Z</time>
      </trkpt>
      <trkpt lat="44.40858" lon="6.03619">
        <ele>1009.9</ele>
        <time>2020-09-05T10:37:02.000Z</time>
      </trkpt>
      <trkpt lat="44.40877" lon="6.03606">
        <ele>1009.3</ele>
        <time>2020-09-05T10:37:04.000Z</time>
      </trkpt>
      <trkpt lat="44.40896" lon="6.03591">
        <ele>1004.3</ele>
        <time>2020-09-05T10:37:06.000Z</time>
      </trkpt>
      <trkpt lat="44.40904" lon="6.03583">
        <ele>1003</ele>
        <time>2020-09-05T10:37:07.000Z</time>
      </trkpt>
      <trkpt lat="44.40919" lon="6.03569">
        <ele>999.3</ele>
        <time>2020-09-05T10:37:09.000Z</time>
      </trkpt>
      <trkpt lat="44.40934" lon="6.03558">
        <ele>996.7</ele>
        <time>2020-09-05T10:37:11.000Z</time>
      </trkpt>
      <trkpt lat="44.4094" lon="6.03556">
        <ele>995.6</ele>
        <time>2020-09-05T10:37:12.000Z</time>
      </trkpt>
      <trkpt lat="44.40948" lon="6.03557">
        <ele>994.9</ele>
        <time>2020-09-05T10:37:13.000Z</time>
      </trkpt>
      <trkpt lat="44.40955" lon="6.03561">
        <ele>994.8</ele>
        <time>2020-09-05T10:37:14.000Z</time>
      </trkpt>
      <trkpt lat="44.40963" lon="6.03567">
        <ele>993.9</ele>
        <time>2020-09-05T10:37:15.000Z</time>
      </trkpt>
      <trkpt lat="44.40979" lon="6.03572">
        <ele>993</ele>
        <time>2020-09-05T10:37:17.000Z</time>
      </trkpt>
      <trkpt lat="44.40986" lon="6.03574">
        <ele>991.5</ele>
        <time>2020-09-05T10:37:18.000Z</time>
      </trkpt>
      <trkpt lat="44.41003" lon="6.03582">
        <ele>991</ele>
        <time>2020-09-05T10:37:20.000Z</time>
      </trkpt>
      <trkpt lat="44.41011" lon="6.03588">
        <ele>991</ele>
        <time>2020-09-05T10:37:21.000Z</time>
      </trkpt>
      <trkpt lat="44.41019" lon="6.03596">
        <ele>990.7</ele>
        <time>2020-09-05T10:37:22.000Z</time>
      </trkpt>
      <trkpt lat="44.4103" lon="6.03616">
        <ele>988.8</ele>
        <time>2020-09-05T10:37:24.000Z</time>
      </trkpt>
      <trkpt lat="44.41038" lon="6.03645">
        <ele>987</ele>
        <time>2020-09-05T10:37:26.000Z</time>
      </trkpt>
      <trkpt lat="44.41042" lon="6.0366">
        <ele>988.8</ele>
        <time>2020-09-05T10:37:27.000Z</time>
      </trkpt>
      <trkpt lat="44.41051" lon="6.03684">
        <ele>983.3</ele>
        <time>2020-09-05T10:37:29.000Z</time>
      </trkpt>
      <trkpt lat="44.41056" lon="6.03696">
        <ele>980.9</ele>
        <time>2020-09-05T10:37:30.000Z</time>
      </trkpt>
      <trkpt lat="44.41068" lon="6.0372">
        <ele>977.1</ele>
        <time>2020-09-05T10:37:32.000Z</time>
      </trkpt>
      <trkpt lat="44.41081" lon="6.03743">
        <ele>974</ele>
        <time>2020-09-05T10:37:34.000Z</time>
      </trkpt>
      <trkpt lat="44.41096" lon="6.03759">
        <ele>975.7</ele>
        <time>2020-09-05T10:37:36.000Z</time>
      </trkpt>
      <trkpt lat="44.41104" lon="6.03763">
        <ele>975.8</ele>
        <time>2020-09-05T10:37:37.000Z</time>
      </trkpt>
      <trkpt lat="44.41114" lon="6.03763">
        <ele>972.8</ele>
        <time>2020-09-05T10:37:39.000Z</time>
      </trkpt>
      <trkpt lat="44.41116" lon="6.03757">
        <ele>970.2</ele>
        <time>2020-09-05T10:37:41.000Z</time>
      </trkpt>
      <trkpt lat="44.41115" lon="6.03764">
        <ele>968.9</ele>
        <time>2020-09-05T10:37:57.000Z</time>
      </trkpt>
      <trkpt lat="44.41118" lon="6.03775">
        <ele>968.6</ele>
        <time>2020-09-05T10:37:59.000Z</time>
      </trkpt>
      <trkpt lat="44.41121" lon="6.03783">
        <ele>968.5</ele>
        <time>2020-09-05T10:38:00.305Z</time>
      </trkpt>
      <trkpt lat="44.4113" lon="6.03794">
        <ele>966.7</ele>
        <time>2020-09-05T10:38:02.000Z</time>
      </trkpt>
      <trkpt lat="44.41142" lon="6.03806">
        <ele>964</ele>
        <time>2020-09-05T10:38:04.000Z</time>
      </trkpt>
      <trkpt lat="44.4115" lon="6.0381">
        <ele>964.2</ele>
        <time>2020-09-05T10:38:06.000Z</time>
      </trkpt>
      <trkpt lat="44.41154" lon="6.03805">
        <ele>967.3</ele>
        <time>2020-09-05T10:38:07.000Z</time>
      </trkpt>
      <trkpt lat="44.4116" lon="6.038">
        <ele>966.8</ele>
        <time>2020-09-05T10:38:08.000Z</time>
      </trkpt>
      <trkpt lat="44.41168" lon="6.03794">
        <ele>964.4</ele>
        <time>2020-09-05T10:38:09.000Z</time>
      </trkpt>
      <trkpt lat="44.41174" lon="6.03787">
        <ele>960</ele>
        <time>2020-09-05T10:38:10.000Z</time>
      </trkpt>
      <trkpt lat="44.41185" lon="6.03781">
        <ele>952.6</ele>
        <time>2020-09-05T10:38:12.000Z</time>
      </trkpt>
      <trkpt lat="44.41193" lon="6.03783">
        <ele>643.2</ele>
        <time>2020-09-05T10:38:14.000Z</time>
      </trkpt>
      <trkpt lat="44.41197" lon="6.03786">
        <ele>643.2</ele>
        <time>2020-09-05T10:38:17.000Z</time>
      </trkpt>
      <trkpt lat="44.41202" lon="6.03789">
        <ele>942.5</ele>
        <time>2020-09-05T10:39:12.000Z</time>
      </trkpt>
      <trkpt lat="44.41206" lon="6.03788">
        <ele>639.3</ele>
        <time>2020-09-05T10:39:15.000Z</time>
      </trkpt>
      <trkpt lat="44.41212" lon="6.03784">
        <ele>639.3</ele>
        <time>2020-09-05T10:39:18.000Z</time>
      </trkpt>
      <trkpt lat="44.4122" lon="6.03783">
        <ele>639.3</ele>
        <time>2020-09-05T10:39:21.000Z</time>
      </trkpt>
      <trkpt lat="44.41224" lon="6.03787">
        <ele>639.3</ele>
        <time>2020-09-05T10:39:23.000Z</time>
      </trkpt>
      <trkpt lat="44.41228" lon="6.03797">
        <ele>639.3</ele>
        <time>2020-09-05T10:39:26.000Z</time>
      </trkpt>
      <trkpt lat="44.41229" lon="6.03803">
        <ele>639.3</ele>
        <time>2020-09-05T10:39:28.000Z</time>
      </trkpt>
      <trkpt lat="44.41232" lon="6.0381">
        <ele>639.3</ele>
        <time>2020-09-05T10:39:31.000Z</time>
      </trkpt>
      <trkpt lat="44.41237" lon="6.03813">
        <ele>639.3</ele>
        <time>2020-09-05T10:39:33.000Z</time>
      </trkpt>
      <trkpt lat="44.41241" lon="6.03813">
        <ele>639.3</ele>
        <time>2020-09-05T10:39:35.000Z</time>
      </trkpt>
      <trkpt lat="44.41246" lon="6.03813">
        <ele>639.3</ele>
        <time>2020-09-05T10:39:42.262Z</time>
      </trkpt>
      <trkpt lat="44.41253" lon="6.03815">
        <ele>639.3</ele>
        <time>2020-09-05T10:39:44.000Z</time>
      </trkpt>
      <trkpt lat="44.41261" lon="6.03821">
        <ele>639.3</ele>
        <time>2020-09-05T10:39:46.000Z</time>
      </trkpt>
      <trkpt lat="44.41264" lon="6.03825">
        <ele>639.3</ele>
        <time>2020-09-05T10:39:47.237Z</time>
      </trkpt>
      <trkpt lat="44.4127" lon="6.03828">
        <ele>639.3</ele>
        <time>2020-09-05T10:39:49.000Z</time>
      </trkpt>
      <trkpt lat="44.41276" lon="6.03827">
        <ele>639.3</ele>
        <time>2020-09-05T10:39:54.000Z</time>
      </trkpt>
      <trkpt lat="44.41283" lon="6.03832">
        <ele>639.3</ele>
        <time>2020-09-05T10:39:57.000Z</time>
      </trkpt>
      <trkpt lat="44.41286" lon="6.03838">
        <ele>639.3</ele>
        <time>2020-09-05T10:39:59.000Z</time>
      </trkpt>
      <trkpt lat="44.41293" lon="6.0383">
        <ele>639.3</ele>
        <time>2020-09-05T10:40:04.000Z</time>
      </trkpt>
      <trkpt lat="44.41296" lon="6.0382">
        <ele>639.3</ele>
        <time>2020-09-05T10:40:05.000Z</time>
      </trkpt>
      <trkpt lat="44.41299" lon="6.03803">
        <ele>639.3</ele>
        <time>2020-09-05T10:40:07.000Z</time>
      </trkpt>
      <trkpt lat="44.413" lon="6.03795">
        <ele>639.3</ele>
        <time>2020-09-05T10:40:08.000Z</time>
      </trkpt>
      <trkpt lat="44.41301" lon="6.03787">
        <ele>639.3</ele>
        <time>2020-09-05T10:40:09.258Z</time>
      </trkpt>
      <trkpt lat="44.41306" lon="6.03786">
        <ele>639.3</ele>
        <time>2020-09-05T10:40:11.000Z</time>
      </trkpt>
      <trkpt lat="44.41315" lon="6.03785">
        <ele>639.3</ele>
        <time>2020-09-05T10:40:13.000Z</time>
      </trkpt>
      <trkpt lat="44.41325" lon="6.03793">
        <ele>903.6</ele>
        <time>2020-09-05T10:40:16.000Z</time>
      </trkpt>
      <trkpt lat="44.41331" lon="6.03795">
        <ele>901.7</ele>
        <time>2020-09-05T10:40:17.000Z</time>
      </trkpt>
      <trkpt lat="44.41337" lon="6.03795">
        <ele>901.1</ele>
        <time>2020-09-05T10:40:20.888Z</time>
      </trkpt>
      <trkpt lat="44.41342" lon="6.03794">
        <ele>898.7</ele>
        <time>2020-09-05T10:40:21.908Z</time>
      </trkpt>
      <trkpt lat="44.41347" lon="6.03794">
        <ele>898</ele>
        <time>2020-09-05T10:40:23.151Z</time>
      </trkpt>
      <trkpt lat="44.41353" lon="6.03791">
        <ele>894.6</ele>
        <time>2020-09-05T10:40:24.788Z</time>
      </trkpt>
      <trkpt lat="44.41357" lon="6.03786">
        <ele>892.6</ele>
        <time>2020-09-05T10:40:26.047Z</time>
      </trkpt>
      <trkpt lat="44.41362" lon="6.03785">
        <ele>887.7</ele>
        <time>2020-09-05T10:40:27.000Z</time>
      </trkpt>
      <trkpt lat="44.41369" lon="6.03783">
        <ele>886.9</ele>
        <time>2020-09-05T10:40:29.006Z</time>
      </trkpt>
      <trkpt lat="44.41377" lon="6.03779">
        <ele>884.8</ele>
        <time>2020-09-05T10:40:30.000Z</time>
      </trkpt>
      <trkpt lat="44.41383" lon="6.03775">
        <ele>884.5</ele>
        <time>2020-09-05T10:40:31.000Z</time>
      </trkpt>
      <trkpt lat="44.41389" lon="6.0377">
        <ele>883.7</ele>
        <time>2020-09-05T10:40:32.000Z</time>
      </trkpt>
      <trkpt lat="44.414" lon="6.03766">
        <ele>879.7</ele>
        <time>2020-09-05T10:40:34.000Z</time>
      </trkpt>
      <trkpt lat="44.41405" lon="6.03761">
        <ele>878.4</ele>
        <time>2020-09-05T10:40:35.988Z</time>
      </trkpt>
      <trkpt lat="44.4141" lon="6.03756">
        <ele>877.9</ele>
        <time>2020-09-05T10:40:37.000Z</time>
      </trkpt>
      <trkpt lat="44.41415" lon="6.03752">
        <ele>875</ele>
        <time>2020-09-05T10:40:38.000Z</time>
      </trkpt>
      <trkpt lat="44.41425" lon="6.03745">
        <ele>874.4</ele>
        <time>2020-09-05T10:40:40.000Z</time>
      </trkpt>
      <trkpt lat="44.41434" lon="6.03737">
        <ele>872</ele>
        <time>2020-09-05T10:40:42.000Z</time>
      </trkpt>
      <trkpt lat="44.41439" lon="6.03739">
        <ele>872.8</ele>
        <time>2020-09-05T10:40:43.403Z</time>
      </trkpt>
      <trkpt lat="44.41443" lon="6.0374">
        <ele>872.3</ele>
        <time>2020-09-05T10:40:44.471Z</time>
      </trkpt>
      <trkpt lat="44.4145" lon="6.03736">
        <ele>871.6</ele>
        <time>2020-09-05T10:40:46.067Z</time>
      </trkpt>
      <trkpt lat="44.41454" lon="6.03733">
        <ele>871.8</ele>
        <time>2020-09-05T10:40:47.000Z</time>
      </trkpt>
      <trkpt lat="44.41469" lon="6.0373">
        <ele>868.2</ele>
        <time>2020-09-05T10:40:50.000Z</time>
      </trkpt>
      <trkpt lat="44.41475" lon="6.03737">
        <ele>867.5</ele>
        <time>2020-09-05T10:40:52.518Z</time>
      </trkpt>
      <trkpt lat="44.41481" lon="6.03738">
        <ele>866.4</ele>
        <time>2020-09-05T10:40:53.698Z</time>
      </trkpt>
      <trkpt lat="44.41487" lon="6.03737">
        <ele>864.2</ele>
        <time>2020-09-05T10:40:55.120Z</time>
      </trkpt>
      <trkpt lat="44.41493" lon="6.0374">
        <ele>862.4</ele>
        <time>2020-09-05T10:40:56.000Z</time>
      </trkpt>
      <trkpt lat="44.41498" lon="6.03744">
        <ele>858.9</ele>
        <time>2020-09-05T10:40:57.000Z</time>
      </trkpt>
      <trkpt lat="44.41503" lon="6.0375">
        <ele>856.7</ele>
        <time>2020-09-05T10:40:58.000Z</time>
      </trkpt>
      <trkpt lat="44.4151" lon="6.03762">
        <ele>855.4</ele>
        <time>2020-09-05T10:41:00.000Z</time>
      </trkpt>
      <trkpt lat="44.41514" lon="6.03769">
        <ele>854.4</ele>
        <time>2020-09-05T10:41:01.000Z</time>
      </trkpt>
      <trkpt lat="44.41518" lon="6.03774">
        <ele>853.7</ele>
        <time>2020-09-05T10:41:02.000Z</time>
      </trkpt>
      <trkpt lat="44.41522" lon="6.03777">
        <ele>853.7</ele>
        <time>2020-09-05T10:41:03.000Z</time>
      </trkpt>
      <trkpt lat="44.4153" lon="6.03775">
        <ele>853.1</ele>
        <time>2020-09-05T10:41:05.000Z</time>
      </trkpt>
      <trkpt lat="44.41533" lon="6.03768">
        <ele>849.8</ele>
        <time>2020-09-05T10:41:06.801Z</time>
      </trkpt>
      <trkpt lat="44.41534" lon="6.03757">
        <ele>843.5</ele>
        <time>2020-09-05T10:41:09.000Z</time>
      </trkpt>
      <trkpt lat="44.41536" lon="6.03738">
        <ele>839.2</ele>
        <time>2020-09-05T10:41:11.000Z</time>
      </trkpt>
      <trkpt lat="44.41538" lon="6.0373">
        <ele>838.7</ele>
        <time>2020-09-05T10:41:12.000Z</time>
      </trkpt>
      <trkpt lat="44.4154" lon="6.03721">
        <ele>837.4</ele>
        <time>2020-09-05T10:41:13.000Z</time>
      </trkpt>
      <trkpt lat="44.41543" lon="6.03704">
        <ele>837.1</ele>
        <time>2020-09-05T10:41:15.000Z</time>
      </trkpt>
      <trkpt lat="44.41543" lon="6.03697">
        <ele>834.9</ele>
        <time>2020-09-05T10:41:16.000Z</time>
      </trkpt>
      <trkpt lat="44.41544" lon="6.03689">
        <ele>832.3</ele>
        <time>2020-09-05T10:41:17.000Z</time>
      </trkpt>
      <trkpt lat="44.41546" lon="6.03674">
        <ele>828.5</ele>
        <time>2020-09-05T10:41:19.000Z</time>
      </trkpt>
      <trkpt lat="44.41542" lon="6.03666">
        <ele>826.9</ele>
        <time>2020-09-05T10:41:21.967Z</time>
      </trkpt>
      <trkpt lat="44.41539" lon="6.03658">
        <ele>826.2</ele>
        <time>2020-09-05T10:41:23.619Z</time>
      </trkpt>
      <trkpt lat="44.41537" lon="6.03642">
        <ele>822.7</ele>
        <time>2020-09-05T10:41:25.000Z</time>
      </trkpt>
      <trkpt lat="44.41536" lon="6.03633">
        <ele>822.2</ele>
        <time>2020-09-05T10:41:26.000Z</time>
      </trkpt>
      <trkpt lat="44.41533" lon="6.03617">
        <ele>819.4</ele>
        <time>2020-09-05T10:41:28.000Z</time>
      </trkpt>
      <trkpt lat="44.41528" lon="6.03607">
        <ele>818.3</ele>
        <time>2020-09-05T10:41:29.000Z</time>
      </trkpt>
      <trkpt lat="44.41521" lon="6.03587">
        <ele>818</ele>
        <time>2020-09-05T10:41:31.000Z</time>
      </trkpt>
      <trkpt lat="44.41514" lon="6.03577">
        <ele>816.2</ele>
        <time>2020-09-05T10:41:33.000Z</time>
      </trkpt>
      <trkpt lat="44.41503" lon="6.0357">
        <ele>812.4</ele>
        <time>2020-09-05T10:41:35.000Z</time>
      </trkpt>
      <trkpt lat="44.41514" lon="6.03564">
        <ele>806.1</ele>
        <time>2020-09-05T10:41:40.000Z</time>
      </trkpt>
      <trkpt lat="44.41527" lon="6.03561">
        <ele>801</ele>
        <time>2020-09-05T10:41:42.000Z</time>
      </trkpt>
      <trkpt lat="44.41534" lon="6.03562">
        <ele>801.2</ele>
        <time>2020-09-05T10:41:43.000Z</time>
      </trkpt>
      <trkpt lat="44.41541" lon="6.03564">
        <ele>800.2</ele>
        <time>2020-09-05T10:41:44.000Z</time>
      </trkpt>
      <trkpt lat="44.41548" lon="6.03566">
        <ele>800</ele>
        <time>2020-09-05T10:41:45.000Z</time>
      </trkpt>
      <trkpt lat="44.41558" lon="6.03574">
        <ele>798.7</ele>
        <time>2020-09-05T10:41:47.000Z</time>
      </trkpt>
      <trkpt lat="44.41555" lon="6.03559">
        <ele>794.4</ele>
        <time>2020-09-05T10:41:52.000Z</time>
      </trkpt>
      <trkpt lat="44.41552" lon="6.03552">
        <ele>792.2</ele>
        <time>2020-09-05T10:41:53.000Z</time>
      </trkpt>
      <trkpt lat="44.41545" lon="6.0354">
        <ele>787.2</ele>
        <time>2020-09-05T10:41:55.000Z</time>
      </trkpt>
      <trkpt lat="44.41535" lon="6.03536">
        <ele>785.6</ele>
        <time>2020-09-05T10:41:57.000Z</time>
      </trkpt>
      <trkpt lat="44.41531" lon="6.03532">
        <ele>783.9</ele>
        <time>2020-09-05T10:41:59.000Z</time>
      </trkpt>
      <trkpt lat="44.41542" lon="6.03526">
        <ele>779</ele>
        <time>2020-09-05T10:42:03.000Z</time>
      </trkpt>
      <trkpt lat="44.41548" lon="6.03526">
        <ele>776</ele>
        <time>2020-09-05T10:42:04.000Z</time>
      </trkpt>
      <trkpt lat="44.41557" lon="6.03529">
        <ele>775.9</ele>
        <time>2020-09-05T10:42:06.000Z</time>
      </trkpt>
      <trkpt lat="44.41564" lon="6.03537">
        <ele>775.1</ele>
        <time>2020-09-05T10:42:08.000Z</time>
      </trkpt>
      <trkpt lat="44.41569" lon="6.03541">
        <ele>775.1</ele>
        <time>2020-09-05T10:42:09.000Z</time>
      </trkpt>
      <trkpt lat="44.41581" lon="6.03547">
        <ele>773.5</ele>
        <time>2020-09-05T10:42:11.000Z</time>
      </trkpt>
      <trkpt lat="44.41585" lon="6.03551">
        <ele>772.6</ele>
        <time>2020-09-05T10:42:12.000Z</time>
      </trkpt>
      <trkpt lat="44.41592" lon="6.03549">
        <ele>768</ele>
        <time>2020-09-05T10:42:15.000Z</time>
      </trkpt>
      <trkpt lat="44.41589" lon="6.0354">
        <ele>766.8</ele>
        <time>2020-09-05T10:42:17.920Z</time>
      </trkpt>
      <trkpt lat="44.41595" lon="6.03541">
        <ele>763.6</ele>
        <time>2020-09-05T10:42:21.561Z</time>
      </trkpt>
      <trkpt lat="44.416" lon="6.03541">
        <ele>758</ele>
        <time>2020-09-05T10:42:24.000Z</time>
      </trkpt>
      <trkpt lat="44.41601" lon="6.03534">
        <ele>757.3</ele>
        <time>2020-09-05T10:42:28.000Z</time>
      </trkpt>
      <trkpt lat="44.41603" lon="6.03527">
        <ele>755.2</ele>
        <time>2020-09-05T10:42:31.158Z</time>
      </trkpt>
      <trkpt lat="44.41603" lon="6.03519">
        <ele>750.9</ele>
        <time>2020-09-05T10:42:33.678Z</time>
      </trkpt>
      <trkpt lat="44.41599" lon="6.03507">
        <ele>749.7</ele>
        <time>2020-09-05T10:42:35.000Z</time>
      </trkpt>
      <trkpt lat="44.41597" lon="6.03499">
        <ele>748.4</ele>
        <time>2020-09-05T10:42:36.000Z</time>
      </trkpt>
      <trkpt lat="44.41592" lon="6.0349">
        <ele>745.2</ele>
        <time>2020-09-05T10:42:38.000Z</time>
      </trkpt>
      <trkpt lat="44.41588" lon="6.03486">
        <ele>745.3</ele>
        <time>2020-09-05T10:42:39.306Z</time>
      </trkpt>
      <trkpt lat="44.41587" lon="6.03476">
        <ele>743.9</ele>
        <time>2020-09-05T10:42:42.000Z</time>
      </trkpt>
      <trkpt lat="44.41593" lon="6.03472">
        <ele>742.8</ele>
        <time>2020-09-05T10:42:44.804Z</time>
      </trkpt>
      <trkpt lat="44.416" lon="6.03475">
        <ele>740.9</ele>
        <time>2020-09-05T10:42:46.000Z</time>
      </trkpt>
      <trkpt lat="44.41607" lon="6.0348">
        <ele>740.4</ele>
        <time>2020-09-05T10:42:47.701Z</time>
      </trkpt>
      <trkpt lat="44.41611" lon="6.03482">
        <ele>736.3</ele>
        <time>2020-09-05T10:42:49.000Z</time>
      </trkpt>
      <trkpt lat="44.41619" lon="6.03478">
        <ele>731.6</ele>
        <time>2020-09-05T10:42:52.000Z</time>
      </trkpt>
      <trkpt lat="44.41617" lon="6.03468">
        <ele>730.9</ele>
        <time>2020-09-05T10:42:54.000Z</time>
      </trkpt>
      <trkpt lat="44.41613" lon="6.03456">
        <ele>732.1</ele>
        <time>2020-09-05T10:42:56.000Z</time>
      </trkpt>
      <trkpt lat="44.41615" lon="6.0345">
        <ele>729.5</ele>
        <time>2020-09-05T10:42:58.000Z</time>
      </trkpt>
      <trkpt lat="44.41625" lon="6.0345">
        <ele>726</ele>
        <time>2020-09-05T10:43:00.000Z</time>
      </trkpt>
      <trkpt lat="44.41637" lon="6.0345">
        <ele>725.6</ele>
        <time>2020-09-05T10:43:02.000Z</time>
      </trkpt>
      <trkpt lat="44.41643" lon="6.03444">
        <ele>723.2</ele>
        <time>2020-09-05T10:43:04.774Z</time>
      </trkpt>
      <trkpt lat="44.41636" lon="6.03433">
        <ele>721.1</ele>
        <time>2020-09-05T10:43:07.621Z</time>
      </trkpt>
      <trkpt lat="44.41633" lon="6.03426">
        <ele>721</ele>
        <time>2020-09-05T10:43:08.794Z</time>
      </trkpt>
      <trkpt lat="44.41632" lon="6.03418">
        <ele>720.9</ele>
        <time>2020-09-05T10:43:09.880Z</time>
      </trkpt>
      <trkpt lat="44.41632" lon="6.03409">
        <ele>719.3</ele>
        <time>2020-09-05T10:43:11.000Z</time>
      </trkpt>
      <trkpt lat="44.41636" lon="6.03395">
        <ele>717.6</ele>
        <time>2020-09-05T10:43:13.000Z</time>
      </trkpt>
      <trkpt lat="44.41636" lon="6.03387">
        <ele>717.6</ele>
        <time>2020-09-05T10:43:14.000Z</time>
      </trkpt>
      <trkpt lat="44.41634" lon="6.03366">
        <ele>714.9</ele>
        <time>2020-09-05T10:43:16.000Z</time>
      </trkpt>
      <trkpt lat="44.4163" lon="6.03356">
        <ele>713</ele>
        <time>2020-09-05T10:43:17.000Z</time>
      </trkpt>
      <trkpt lat="44.41627" lon="6.03347">
        <ele>711.4</ele>
        <time>2020-09-05T10:43:18.000Z</time>
      </trkpt>
      <trkpt lat="44.41621" lon="6.03333">
        <ele>712.8</ele>
        <time>2020-09-05T10:43:20.000Z</time>
      </trkpt>
      <trkpt lat="44.41618" lon="6.03327">
        <ele>712.2</ele>
        <time>2020-09-05T10:43:21.000Z</time>
      </trkpt>
      <trkpt lat="44.41611" lon="6.03315">
        <ele>711.8</ele>
        <time>2020-09-05T10:43:23.000Z</time>
      </trkpt>
      <trkpt lat="44.41607" lon="6.03309">
        <ele>711.1</ele>
        <time>2020-09-05T10:43:24.000Z</time>
      </trkpt>
      <trkpt lat="44.416" lon="6.03296">
        <ele>710</ele>
        <time>2020-09-05T10:43:26.000Z</time>
      </trkpt>
      <trkpt lat="44.41599" lon="6.03288">
        <ele>710.4</ele>
        <time>2020-09-05T10:43:28.000Z</time>
      </trkpt>
      <trkpt lat="44.41604" lon="6.03276">
        <ele>708.4</ele>
        <time>2020-09-05T10:43:30.000Z</time>
      </trkpt>
      <trkpt lat="44.41608" lon="6.03263">
        <ele>708.5</ele>
        <time>2020-09-05T10:43:33.119Z</time>
      </trkpt>
      <trkpt lat="44.41606" lon="6.03253">
        <ele>707.8</ele>
        <time>2020-09-05T10:43:34.000Z</time>
      </trkpt>
      <trkpt lat="44.41602" lon="6.03235">
        <ele>704.9</ele>
        <time>2020-09-05T10:43:36.000Z</time>
      </trkpt>
      <trkpt lat="44.41598" lon="6.03218">
        <ele>703.3</ele>
        <time>2020-09-05T10:43:38.000Z</time>
      </trkpt>
      <trkpt lat="44.41594" lon="6.03201">
        <ele>701.3</ele>
        <time>2020-09-05T10:43:40.000Z</time>
      </trkpt>
      <trkpt lat="44.41593" lon="6.03194">
        <ele>700.9</ele>
        <time>2020-09-05T10:43:41.000Z</time>
      </trkpt>
      <trkpt lat="44.41592" lon="6.03186">
        <ele>700.7</ele>
        <time>2020-09-05T10:43:43.271Z</time>
      </trkpt>
      <trkpt lat="44.4159" lon="6.03171">
        <ele>700.3</ele>
        <time>2020-09-05T10:43:45.000Z</time>
      </trkpt>
      <trkpt lat="44.41592" lon="6.03151">
        <ele>699.2</ele>
        <time>2020-09-05T10:43:47.000Z</time>
      </trkpt>
      <trkpt lat="44.4159" lon="6.03144">
        <ele>698.8</ele>
        <time>2020-09-05T10:43:48.000Z</time>
      </trkpt>
      <trkpt lat="44.41582" lon="6.0313">
        <ele>698.7</ele>
        <time>2020-09-05T10:43:50.000Z</time>
      </trkpt>
      <trkpt lat="44.4158" lon="6.03114">
        <ele>695.6</ele>
        <time>2020-09-05T10:43:52.000Z</time>
      </trkpt>
      <trkpt lat="44.4158" lon="6.03104">
        <ele>694.4</ele>
        <time>2020-09-05T10:43:53.000Z</time>
      </trkpt>
      <trkpt lat="44.41578" lon="6.03084">
        <ele>691.6</ele>
        <time>2020-09-05T10:43:55.000Z</time>
      </trkpt>
      <trkpt lat="44.41577" lon="6.03075">
        <ele>691.7</ele>
        <time>2020-09-05T10:43:56.000Z</time>
      </trkpt>
      <trkpt lat="44.41577" lon="6.03066">
        <ele>691.4</ele>
        <time>2020-09-05T10:43:57.000Z</time>
      </trkpt>
      <trkpt lat="44.41576" lon="6.03058">
        <ele>690.3</ele>
        <time>2020-09-05T10:43:58.000Z</time>
      </trkpt>
      <trkpt lat="44.41574" lon="6.03052">
        <ele>688.2</ele>
        <time>2020-09-05T10:43:59.000Z</time>
      </trkpt>
      <trkpt lat="44.41575" lon="6.03039">
        <ele>686.2</ele>
        <time>2020-09-05T10:44:02.000Z</time>
      </trkpt>
      <trkpt lat="44.41575" lon="6.03033">
        <ele>684.3</ele>
        <time>2020-09-05T10:44:03.000Z</time>
      </trkpt>
      <trkpt lat="44.4157" lon="6.03023">
        <ele>684.9</ele>
        <time>2020-09-05T10:44:05.241Z</time>
      </trkpt>
      <trkpt lat="44.41569" lon="6.03017">
        <ele>680.5</ele>
        <time>2020-09-05T10:44:09.168Z</time>
      </trkpt>
      <trkpt lat="44.41565" lon="6.02999">
        <ele>677.3</ele>
        <time>2020-09-05T10:44:11.029Z</time>
      </trkpt>
      <trkpt lat="44.4156" lon="6.02992">
        <ele>679.1</ele>
        <time>2020-09-05T10:44:12.749Z</time>
      </trkpt>
      <trkpt lat="44.41555" lon="6.02981">
        <ele>678.5</ele>
        <time>2020-09-05T10:44:15.132Z</time>
      </trkpt>
      <trkpt lat="44.41552" lon="6.0297">
        <ele>679.4</ele>
        <time>2020-09-05T10:44:17.552Z</time>
      </trkpt>
      <trkpt lat="44.41551" lon="6.02963">
        <ele>679.6</ele>
        <time>2020-09-05T10:44:18.791Z</time>
      </trkpt>
      <trkpt lat="44.41553" lon="6.02956">
        <ele>679.1</ele>
        <time>2020-09-05T10:44:20.096Z</time>
      </trkpt>
      <trkpt lat="44.41557" lon="6.02948">
        <ele>676.9</ele>
        <time>2020-09-05T10:44:22.000Z</time>
      </trkpt>
      <trkpt lat="44.41562" lon="6.02941">
        <ele>678.5</ele>
        <time>2020-09-05T10:44:25.000Z</time>
      </trkpt>
      <trkpt lat="44.41567" lon="6.02941">
        <ele>675.8</ele>
        <time>2020-09-05T10:46:01.000Z</time>
      </trkpt>
      <trkpt lat="44.41573" lon="6.02945">
        <ele>673.2</ele>
        <time>2020-09-05T10:46:05.000Z</time>
      </trkpt>
      <trkpt lat="44.41587" lon="6.0294">
        <ele>677.4</ele>
        <time>2020-09-05T10:50:21.000Z</time>
      </trkpt>
      <trkpt lat="44.41594" lon="6.02935">
        <ele>677.9</ele>
        <time>2020-09-05T10:50:22.000Z</time>
      </trkpt>
      <trkpt lat="44.416" lon="6.0293">
        <ele>677.4</ele>
        <time>2020-09-05T10:50:23.000Z</time>
      </trkpt>
      <trkpt lat="44.41605" lon="6.02925">
        <ele>675.9</ele>
        <time>2020-09-05T10:50:24.000Z</time>
      </trkpt>
      <trkpt lat="44.41617" lon="6.02915">
        <ele>676.2</ele>
        <time>2020-09-05T10:50:26.000Z</time>
      </trkpt>
      <trkpt lat="44.41625" lon="6.02913">
        <ele>675</ele>
        <time>2020-09-05T10:50:27.000Z</time>
      </trkpt>
      <trkpt lat="44.41633" lon="6.02913">
        <ele>677</ele>
        <time>2020-09-05T10:50:28.000Z</time>
      </trkpt>
      <trkpt lat="44.41651" lon="6.02919">
        <ele>677.7</ele>
        <time>2020-09-05T10:50:30.000Z</time>
      </trkpt>
      <trkpt lat="44.41669" lon="6.02927">
        <ele>679.7</ele>
        <time>2020-09-05T10:50:32.000Z</time>
      </trkpt>
      <trkpt lat="44.41687" lon="6.02936">
        <ele>680.3</ele>
        <time>2020-09-05T10:50:34.000Z</time>
      </trkpt>
      <trkpt lat="44.41696" lon="6.02941">
        <ele>679.8</ele>
        <time>2020-09-05T10:50:35.000Z</time>
      </trkpt>
      <trkpt lat="44.41705" lon="6.02945">
        <ele>679.3</ele>
        <time>2020-09-05T10:50:36.000Z</time>
      </trkpt>
      <trkpt lat="44.41721" lon="6.02957">
        <ele>680.6</ele>
        <time>2020-09-05T10:50:38.000Z</time>
      </trkpt>
      <trkpt lat="44.4173" lon="6.02964">
        <ele>681.8</ele>
        <time>2020-09-05T10:50:39.000Z</time>
      </trkpt>
      <trkpt lat="44.41737" lon="6.02969">
        <ele>681.2</ele>
        <time>2020-09-05T10:50:40.000Z</time>
      </trkpt>
      <trkpt lat="44.41751" lon="6.02973">
        <ele>680.8</ele>
        <time>2020-09-05T10:50:42.000Z</time>
      </trkpt>
      <trkpt lat="44.41767" lon="6.02979">
        <ele>681.7</ele>
        <time>2020-09-05T10:50:44.000Z</time>
      </trkpt>
      <trkpt lat="44.41775" lon="6.02983">
        <ele>681</ele>
        <time>2020-09-05T10:50:45.000Z</time>
      </trkpt>
      <trkpt lat="44.4179" lon="6.0299">
        <ele>681.4</ele>
        <time>2020-09-05T10:50:47.000Z</time>
      </trkpt>
      <trkpt lat="44.41805" lon="6.02996">
        <ele>678.7</ele>
        <time>2020-09-05T10:50:49.000Z</time>
      </trkpt>
      <trkpt lat="44.41812" lon="6.03">
        <ele>679.3</ele>
        <time>2020-09-05T10:50:50.000Z</time>
      </trkpt>
      <trkpt lat="44.4182" lon="6.03005">
        <ele>680.6</ele>
        <time>2020-09-05T10:50:51.000Z</time>
      </trkpt>
      <trkpt lat="44.41837" lon="6.03013">
        <ele>680.5</ele>
        <time>2020-09-05T10:50:53.000Z</time>
      </trkpt>
      <trkpt lat="44.41854" lon="6.03021">
        <ele>679.8</ele>
        <time>2020-09-05T10:50:55.000Z</time>
      </trkpt>
      <trkpt lat="44.41861" lon="6.03025">
        <ele>679.4</ele>
        <time>2020-09-05T10:50:56.000Z</time>
      </trkpt>
      <trkpt lat="44.41868" lon="6.03026">
        <ele>681.1</ele>
        <time>2020-09-05T10:50:57.000Z</time>
      </trkpt>
      <trkpt lat="44.41879" lon="6.0303">
        <ele>682.8</ele>
        <time>2020-09-05T10:50:59.000Z</time>
      </trkpt>
      <trkpt lat="44.41892" lon="6.03037">
        <ele>682.4</ele>
        <time>2020-09-05T10:51:01.000Z</time>
      </trkpt>
      <trkpt lat="44.41898" lon="6.03042">
        <ele>682.8</ele>
        <time>2020-09-05T10:51:02.000Z</time>
      </trkpt>
      <trkpt lat="44.41905" lon="6.03048">
        <ele>683.1</ele>
        <time>2020-09-05T10:51:03.000Z</time>
      </trkpt>
      <trkpt lat="44.41918" lon="6.03057">
        <ele>684.7</ele>
        <time>2020-09-05T10:51:05.000Z</time>
      </trkpt>
      <trkpt lat="44.41925" lon="6.03061">
        <ele>684.9</ele>
        <time>2020-09-05T10:51:06.000Z</time>
      </trkpt>
      <trkpt lat="44.4193" lon="6.03064">
        <ele>684</ele>
        <time>2020-09-05T10:51:07.000Z</time>
      </trkpt>
      <trkpt lat="44.4194" lon="6.03069">
        <ele>683.9</ele>
        <time>2020-09-05T10:51:09.000Z</time>
      </trkpt>
      <trkpt lat="44.41946" lon="6.0307">
        <ele>686.3</ele>
        <time>2020-09-05T10:51:10.000Z</time>
      </trkpt>
      <trkpt lat="44.41951" lon="6.0307">
        <ele>686.4</ele>
        <time>2020-09-05T10:51:11.000Z</time>
      </trkpt>
      <trkpt lat="44.41958" lon="6.03068">
        <ele>684.4</ele>
        <time>2020-09-05T10:51:13.000Z</time>
      </trkpt>
      <trkpt lat="44.41962" lon="6.03064">
        <ele>683.1</ele>
        <time>2020-09-05T10:51:14.000Z</time>
      </trkpt>
      <trkpt lat="44.41966" lon="6.0306">
        <ele>682.5</ele>
        <time>2020-09-05T10:51:15.000Z</time>
      </trkpt>
      <trkpt lat="44.41971" lon="6.03052">
        <ele>677.2</ele>
        <time>2020-09-05T10:51:17.000Z</time>
      </trkpt>
      <trkpt lat="44.41976" lon="6.03045">
        <ele>675.4</ele>
        <time>2020-09-05T10:51:19.000Z</time>
      </trkpt>
      <trkpt lat="44.41984" lon="6.0304">
        <ele>673.4</ele>
        <time>2020-09-05T10:51:21.000Z</time>
      </trkpt>
      <trkpt lat="44.41988" lon="6.03037">
        <ele>673.7</ele>
        <time>2020-09-05T10:51:22.273Z</time>
      </trkpt>
      <trkpt lat="44.41996" lon="6.03031">
        <ele>673.5</ele>
        <time>2020-09-05T10:51:24.000Z</time>
      </trkpt>
      <trkpt lat="44.42004" lon="6.03024">
        <ele>675.5</ele>
        <time>2020-09-05T10:51:26.000Z</time>
      </trkpt>
      <trkpt lat="44.42008" lon="6.03021">
        <ele>673.9</ele>
        <time>2020-09-05T10:51:27.000Z</time>
      </trkpt>
      <trkpt lat="44.42013" lon="6.03017">
        <ele>671.7</ele>
        <time>2020-09-05T10:51:28.000Z</time>
      </trkpt>
      <trkpt lat="44.42018" lon="6.03012">
        <ele>671.3</ele>
        <time>2020-09-05T10:51:29.000Z</time>
      </trkpt>
      <trkpt lat="44.42027" lon="6.03006">
        <ele>671.2</ele>
        <time>2020-09-05T10:51:31.000Z</time>
      </trkpt>
      <trkpt lat="44.42031" lon="6.03003">
        <ele>670.3</ele>
        <time>2020-09-05T10:51:32.000Z</time>
      </trkpt>
      <trkpt lat="44.42042" lon="6.02994">
        <ele>668.5</ele>
        <time>2020-09-05T10:51:34.000Z</time>
      </trkpt>
      <trkpt lat="44.42048" lon="6.02989">
        <ele>666.6</ele>
        <time>2020-09-05T10:51:35.000Z</time>
      </trkpt>
      <trkpt lat="44.42054" lon="6.02983">
        <ele>665.9</ele>
        <time>2020-09-05T10:51:36.000Z</time>
      </trkpt>
      <trkpt lat="44.42061" lon="6.02977">
        <ele>665.6</ele>
        <time>2020-09-05T10:51:37.000Z</time>
      </trkpt>
      <trkpt lat="44.42075" lon="6.02967">
        <ele>664.8</ele>
        <time>2020-09-05T10:51:39.000Z</time>
      </trkpt>
      <trkpt lat="44.42081" lon="6.02963">
        <ele>663.7</ele>
        <time>2020-09-05T10:51:40.000Z</time>
      </trkpt>
      <trkpt lat="44.42095" lon="6.02951">
        <ele>661.6</ele>
        <time>2020-09-05T10:51:42.000Z</time>
      </trkpt>
      <trkpt lat="44.4211" lon="6.02939">
        <ele>661</ele>
        <time>2020-09-05T10:51:44.000Z</time>
      </trkpt>
      <trkpt lat="44.42126" lon="6.02928">
        <ele>661</ele>
        <time>2020-09-05T10:51:46.000Z</time>
      </trkpt>
      <trkpt lat="44.42133" lon="6.02923">
        <ele>661</ele>
        <time>2020-09-05T10:51:47.000Z</time>
      </trkpt>
      <trkpt lat="44.42147" lon="6.02912">
        <ele>661</ele>
        <time>2020-09-05T10:51:49.000Z</time>
      </trkpt>
      <trkpt lat="44.42164" lon="6.029">
        <ele>661</ele>
        <time>2020-09-05T10:51:51.000Z</time>
      </trkpt>
      <trkpt lat="44.42171" lon="6.02895">
        <ele>661</ele>
        <time>2020-09-05T10:51:52.000Z</time>
      </trkpt>
      <trkpt lat="44.42187" lon="6.02883">
        <ele>661</ele>
        <time>2020-09-05T10:51:54.000Z</time>
      </trkpt>
      <trkpt lat="44.42195" lon="6.02877">
        <ele>661</ele>
        <time>2020-09-05T10:51:55.000Z</time>
      </trkpt>
      <trkpt lat="44.42209" lon="6.02863">
        <ele>661</ele>
        <time>2020-09-05T10:51:57.000Z</time>
      </trkpt>
      <trkpt lat="44.42217" lon="6.02857">
        <ele>661</ele>
        <time>2020-09-05T10:51:58.000Z</time>
      </trkpt>
      <trkpt lat="44.42225" lon="6.02851">
        <ele>661</ele>
        <time>2020-09-05T10:51:59.000Z</time>
      </trkpt>
      <trkpt lat="44.4223" lon="6.02846">
        <ele>661</ele>
        <time>2020-09-05T10:52:00.000Z</time>
      </trkpt>
      <trkpt lat="44.42241" lon="6.02838">
        <ele>661</ele>
        <time>2020-09-05T10:52:02.000Z</time>
      </trkpt>
      <trkpt lat="44.4225" lon="6.02832">
        <ele>661</ele>
        <time>2020-09-05T10:52:04.000Z</time>
      </trkpt>
      <trkpt lat="44.42252" lon="6.0282">
        <ele>661</ele>
        <time>2020-09-05T10:52:06.000Z</time>
      </trkpt>
      <trkpt lat="44.42242" lon="6.0281">
        <ele>661</ele>
        <time>2020-09-05T10:52:08.000Z</time>
      </trkpt>
      <trkpt lat="44.42234" lon="6.02808">
        <ele>661</ele>
        <time>2020-09-05T10:52:09.000Z</time>
      </trkpt>
      <trkpt lat="44.42216" lon="6.02802">
        <ele>661</ele>
        <time>2020-09-05T10:52:11.000Z</time>
      </trkpt>
      <trkpt lat="44.42201" lon="6.02791">
        <ele>661</ele>
        <time>2020-09-05T10:52:13.000Z</time>
      </trkpt>
      <trkpt lat="44.42196" lon="6.02783">
        <ele>661</ele>
        <time>2020-09-05T10:52:14.000Z</time>
      </trkpt>
      <trkpt lat="44.42192" lon="6.02775">
        <ele>661</ele>
        <time>2020-09-05T10:52:15.000Z</time>
      </trkpt>
      <trkpt lat="44.42187" lon="6.02759">
        <ele>661</ele>
        <time>2020-09-05T10:52:17.000Z</time>
      </trkpt>
      <trkpt lat="44.42186" lon="6.02752">
        <ele>661</ele>
        <time>2020-09-05T10:52:18.000Z</time>
      </trkpt>
      <trkpt lat="44.42185" lon="6.02744">
        <ele>661</ele>
        <time>2020-09-05T10:52:19.000Z</time>
      </trkpt>
      <trkpt lat="44.42184" lon="6.02732">
        <ele>661</ele>
        <time>2020-09-05T10:52:21.000Z</time>
      </trkpt>
      <trkpt lat="44.42178" lon="6.02721">
        <ele>661</ele>
        <time>2020-09-05T10:52:24.000Z</time>
      </trkpt>
      <trkpt lat="44.42182" lon="6.02724">
        <ele>639.3</ele>
        <time>2020-09-05T10:54:16.468Z</time>
      </trkpt>
      <trkpt lat="44.42181" lon="6.02714">
        <ele>639.3</ele>
        <time>2020-09-05T10:54:24.000Z</time>
      </trkpt>
      <trkpt lat="44.42178" lon="6.02708">
        <ele>641.6</ele>
        <time>2020-09-05T10:54:28.000Z</time>
      </trkpt>
      <trkpt lat="44.42175" lon="6.02702">
        <ele>641.6</ele>
        <time>2020-09-05T10:54:33.000Z</time>
      </trkpt>
      <trkpt lat="44.42175" lon="6.02696">
        <ele>641.6</ele>
        <time>2020-09-05T10:54:57.379Z</time>
      </trkpt>
      <trkpt lat="44.42172" lon="6.02691">
        <ele>641.6</ele>
        <time>2020-09-05T10:55:28.000Z</time>
      </trkpt>
      <trkpt lat="44.42168" lon="6.02688">
        <ele>647.9</ele>
        <time>2020-09-05T10:55:47.000Z</time>
      </trkpt>
      <trkpt lat="44.42165" lon="6.02683">
        <ele>647.9</ele>
        <time>2020-09-05T10:55:55.000Z</time>
      </trkpt>
      <trkpt lat="44.42162" lon="6.02678">
        <ele>647.9</ele>
        <time>2020-09-05T10:56:08.940Z</time>
      </trkpt>
      <trkpt lat="44.42157" lon="6.0268">
        <ele>647.9</ele>
        <time>2020-09-05T10:56:28.623Z</time>
      </trkpt>
      <trkpt lat="44.42153" lon="6.02681">
        <ele>644</ele>
        <time>2020-09-05T10:59:09.000Z</time>
      </trkpt>
      <trkpt lat="44.42142" lon="6.02686">
        <ele>650</ele>
        <time>2020-09-05T11:41:41.000Z</time>
      </trkpt>
      <trkpt lat="44.42143" lon="6.02692">
        <ele>655.1</ele>
        <time>2020-09-05T11:41:50.000Z</time>
      </trkpt>
      <trkpt lat="44.42156" lon="6.027">
        <ele>651.9</ele>
        <time>2020-09-05T11:41:56.000Z</time>
      </trkpt>
      <trkpt lat="44.42167" lon="6.02704">
        <ele>652.4</ele>
        <time>2020-09-05T11:41:59.000Z</time>
      </trkpt>
      <trkpt lat="44.42175" lon="6.02709">
        <ele>654.8</ele>
        <time>2020-09-05T11:42:05.000Z</time>
      </trkpt>
      <trkpt lat="44.42169" lon="6.02719">
        <ele>652.6</ele>
        <time>2020-09-05T11:42:11.000Z</time>
      </trkpt>
      <trkpt lat="44.4216" lon="6.02718">
        <ele>654.8</ele>
        <time>2020-09-05T11:42:16.009Z</time>
      </trkpt>
      <trkpt lat="44.42166" lon="6.02716">
        <ele>650.5</ele>
        <time>2020-09-05T11:42:23.000Z</time>
      </trkpt>
      <trkpt lat="44.42174" lon="6.02713">
        <ele>652.5</ele>
        <time>2020-09-05T11:42:29.000Z</time>
      </trkpt>
      <trkpt lat="44.4218" lon="6.02714">
        <ele>653</ele>
        <time>2020-09-05T11:42:32.000Z</time>
      </trkpt>
      <trkpt lat="44.42171" lon="6.02703">
        <ele>653.1</ele>
        <time>2020-09-05T11:42:44.000Z</time>
      </trkpt>
      <trkpt lat="44.42162" lon="6.02692">
        <ele>654.6</ele>
        <time>2020-09-05T11:42:50.000Z</time>
      </trkpt>
      <trkpt lat="44.42156" lon="6.0269">
        <ele>650.4</ele>
        <time>2020-09-05T11:42:56.000Z</time>
      </trkpt>
      <trkpt lat="44.4216" lon="6.02697">
        <ele>651.9</ele>
        <time>2020-09-05T11:43:11.000Z</time>
      </trkpt>
      <trkpt lat="44.42164" lon="6.027">
        <ele>654.3</ele>
        <time>2020-09-05T11:43:16.217Z</time>
      </trkpt>
      <trkpt lat="44.42169" lon="6.02696">
        <ele>651.2</ele>
        <time>2020-09-05T11:43:35.000Z</time>
      </trkpt>
      <trkpt lat="44.42164" lon="6.02697">
        <ele>647.5</ele>
        <time>2020-09-05T11:43:50.000Z</time>
      </trkpt>
      <trkpt lat="44.42158" lon="6.02697">
        <ele>649.4</ele>
        <time>2020-09-05T11:43:56.000Z</time>
      </trkpt>
      <trkpt lat="44.42158" lon="6.02688">
        <ele>655</ele>
        <time>2020-09-05T11:44:05.000Z</time>
      </trkpt>
      <trkpt lat="44.42162" lon="6.02689">
        <ele>655.6</ele>
        <time>2020-09-05T11:44:11.000Z</time>
      </trkpt>
      <trkpt lat="44.42168" lon="6.02694">
        <ele>656.8</ele>
        <time>2020-09-05T11:44:20.000Z</time>
      </trkpt>
      <trkpt lat="44.42163" lon="6.02686">
        <ele>661.5</ele>
        <time>2020-09-05T11:44:50.000Z</time>
      </trkpt>
      <trkpt lat="44.42171" lon="6.02691">
        <ele>657.6</ele>
        <time>2020-09-05T11:44:53.000Z</time>
      </trkpt>
      <trkpt lat="44.42178" lon="6.02702">
        <ele>655.3</ele>
        <time>2020-09-05T11:44:56.000Z</time>
      </trkpt>
      <trkpt lat="44.42184" lon="6.02713">
        <ele>656.2</ele>
        <time>2020-09-05T11:45:01.500Z</time>
      </trkpt>
      <trkpt lat="44.42177" lon="6.02711">
        <ele>659</ele>
        <time>2020-09-05T11:45:11.000Z</time>
      </trkpt>
      <trkpt lat="44.42173" lon="6.02698">
        <ele>656.1</ele>
        <time>2020-09-05T11:45:16.529Z</time>
      </trkpt>
      <trkpt lat="44.42167" lon="6.02693">
        <ele>656.8</ele>
        <time>2020-09-05T11:45:20.000Z</time>
      </trkpt>
      <trkpt lat="44.42162" lon="6.02695">
        <ele>654.1</ele>
        <time>2020-09-05T11:45:26.000Z</time>
      </trkpt>
      <trkpt lat="44.42165" lon="6.02704">
        <ele>658.5</ele>
        <time>2020-09-05T11:46:02.208Z</time>
      </trkpt>
      <trkpt lat="44.42159" lon="6.02698">
        <ele>661.1</ele>
        <time>2020-09-05T11:46:11.000Z</time>
      </trkpt>
      <trkpt lat="44.42163" lon="6.02695">
        <ele>661.5</ele>
        <time>2020-09-05T11:46:20.000Z</time>
      </trkpt>
      <trkpt lat="44.42169" lon="6.027">
        <ele>662.5</ele>
        <time>2020-09-05T11:46:26.000Z</time>
      </trkpt>
      <trkpt lat="44.42169" lon="6.02693">
        <ele>663.7</ele>
        <time>2020-09-05T11:46:37.269Z</time>
      </trkpt>
      <trkpt lat="44.42174" lon="6.02686">
        <ele>679.2</ele>
        <time>2020-09-05T11:47:26.000Z</time>
      </trkpt>
      <trkpt lat="44.42177" lon="6.02692">
        <ele>683.9</ele>
        <time>2020-09-05T11:47:38.000Z</time>
      </trkpt>
      <trkpt lat="44.4217" lon="6.02684">
        <ele>686.4</ele>
        <time>2020-09-05T11:47:47.000Z</time>
      </trkpt>
      <trkpt lat="44.42167" lon="6.0268">
        <ele>677.4</ele>
        <time>2020-09-05T11:54:41.000Z</time>
      </trkpt>
      <trkpt lat="44.42164" lon="6.02674">
        <ele>681.3</ele>
        <time>2020-09-05T11:54:59.000Z</time>
      </trkpt>
      <trkpt lat="44.42157" lon="6.02663">
        <ele>680.8</ele>
        <time>2020-09-05T11:55:05.000Z</time>
      </trkpt>
      <trkpt lat="44.42151" lon="6.02663">
        <ele>671.7</ele>
        <time>2020-09-05T12:00:20.000Z</time>
      </trkpt>
      <trkpt lat="44.42154" lon="6.02672">
        <ele>668.2</ele>
        <time>2020-09-05T12:00:32.000Z</time>
      </trkpt>
      <trkpt lat="44.4215" lon="6.02667">
        <ele>650.5</ele>
        <time>2020-09-05T12:02:23.000Z</time>
      </trkpt>
      <trkpt lat="44.42156" lon="6.02678">
        <ele>650.2</ele>
        <time>2020-09-05T12:02:32.000Z</time>
      </trkpt>
      <trkpt lat="44.42162" lon="6.02681">
        <ele>652.1</ele>
        <time>2020-09-05T12:02:53.000Z</time>
      </trkpt>
      <trkpt lat="44.42166" lon="6.02687">
        <ele>648.2</ele>
        <time>2020-09-05T12:03:04.635Z</time>
      </trkpt>
      <trkpt lat="44.42159" lon="6.02679">
        <ele>648.8</ele>
        <time>2020-09-05T12:03:19.611Z</time>
      </trkpt>
      <trkpt lat="44.42155" lon="6.02683">
        <ele>647.7</ele>
        <time>2020-09-05T12:03:26.000Z</time>
      </trkpt>
      <trkpt lat="44.42147" lon="6.0268">
        <ele>650.3</ele>
        <time>2020-09-05T12:03:29.629Z</time>
      </trkpt>
      <trkpt lat="44.42145" lon="6.02672">
        <ele>651.5</ele>
        <time>2020-09-05T12:03:34.726Z</time>
      </trkpt>
      <trkpt lat="44.42146" lon="6.0268">
        <ele>651.5</ele>
        <time>2020-09-05T12:03:44.000Z</time>
      </trkpt>
      <trkpt lat="44.42157" lon="6.02691">
        <ele>652.6</ele>
        <time>2020-09-05T12:03:49.670Z</time>
      </trkpt>
      <trkpt lat="44.42161" lon="6.02688">
        <ele>651.2</ele>
        <time>2020-09-05T12:03:53.000Z</time>
      </trkpt>
      <trkpt lat="44.42151" lon="6.02685">
        <ele>650.4</ele>
        <time>2020-09-05T12:04:04.862Z</time>
      </trkpt>
      <trkpt lat="44.42157" lon="6.02692">
        <ele>649</ele>
        <time>2020-09-05T12:04:14.000Z</time>
      </trkpt>
      <trkpt lat="44.42157" lon="6.02685">
        <ele>651</ele>
        <time>2020-09-05T12:04:19.768Z</time>
      </trkpt>
      <trkpt lat="44.42152" lon="6.02677">
        <ele>661.7</ele>
        <time>2020-09-05T12:04:29.000Z</time>
      </trkpt>
      <trkpt lat="44.42154" lon="6.02685">
        <ele>661.6</ele>
        <time>2020-09-05T12:04:38.000Z</time>
      </trkpt>
      <trkpt lat="44.42161" lon="6.02685">
        <ele>662.2</ele>
        <time>2020-09-05T12:04:41.000Z</time>
      </trkpt>
      <trkpt lat="44.42165" lon="6.02694">
        <ele>661.7</ele>
        <time>2020-09-05T12:04:49.874Z</time>
      </trkpt>
      <trkpt lat="44.4216" lon="6.02687">
        <ele>664.1</ele>
        <time>2020-09-05T12:04:53.000Z</time>
      </trkpt>
      <trkpt lat="44.42154" lon="6.0268">
        <ele>661.6</ele>
        <time>2020-09-05T12:04:59.000Z</time>
      </trkpt>
      <trkpt lat="44.42159" lon="6.02682">
        <ele>657.4</ele>
        <time>2020-09-05T12:05:09.926Z</time>
      </trkpt>
      <trkpt lat="44.42154" lon="6.02675">
        <ele>656.7</ele>
        <time>2020-09-05T12:05:20.000Z</time>
      </trkpt>
      <trkpt lat="44.42157" lon="6.0268">
        <ele>657.3</ele>
        <time>2020-09-05T12:05:29.997Z</time>
      </trkpt>
      <trkpt lat="44.42162" lon="6.02686">
        <ele>652.9</ele>
        <time>2020-09-05T12:05:35.000Z</time>
      </trkpt>
      <trkpt lat="44.42168" lon="6.02691">
        <ele>657.2</ele>
        <time>2020-09-05T12:05:56.000Z</time>
      </trkpt>
      <trkpt lat="44.42173" lon="6.02696">
        <ele>657</ele>
        <time>2020-09-05T12:06:00.226Z</time>
      </trkpt>
      <trkpt lat="44.42164" lon="6.0269">
        <ele>657.5</ele>
        <time>2020-09-05T12:06:05.000Z</time>
      </trkpt>
      <trkpt lat="44.4216" lon="6.02679">
        <ele>652.1</ele>
        <time>2020-09-05T12:06:35.000Z</time>
      </trkpt>
      <trkpt lat="44.42153" lon="6.0268">
        <ele>651.8</ele>
        <time>2020-09-05T12:06:40.307Z</time>
      </trkpt>
      <trkpt lat="44.42154" lon="6.02673">
        <ele>657.8</ele>
        <time>2020-09-05T12:06:56.000Z</time>
      </trkpt>
      <trkpt lat="44.4216" lon="6.02678">
        <ele>655.6</ele>
        <time>2020-09-05T12:07:10.264Z</time>
      </trkpt>
      <trkpt lat="44.42157" lon="6.02668">
        <ele>661.7</ele>
        <time>2020-09-05T12:08:10.388Z</time>
      </trkpt>
      <trkpt lat="44.42151" lon="6.0267">
        <ele>663.8</ele>
        <time>2020-09-05T12:08:25.427Z</time>
      </trkpt>
      <trkpt lat="44.42156" lon="6.02673">
        <ele>661.3</ele>
        <time>2020-09-05T12:08:32.000Z</time>
      </trkpt>
      <trkpt lat="44.42148" lon="6.02668">
        <ele>661.2</ele>
        <time>2020-09-05T12:08:59.000Z</time>
      </trkpt>
      <trkpt lat="44.4215" lon="6.02674">
        <ele>655.5</ele>
        <time>2020-09-05T12:09:10.575Z</time>
      </trkpt>
      <trkpt lat="44.42154" lon="6.02679">
        <ele>649.2</ele>
        <time>2020-09-05T12:09:14.000Z</time>
      </trkpt>
      <trkpt lat="44.42157" lon="6.02686">
        <ele>646</ele>
        <time>2020-09-05T12:09:20.593Z</time>
      </trkpt>
    </trkseg>
  </trk>
</gpx>